PWSweather.com
Personal Weather Stations
Station Observations

GerenaES 41860

Lat: 37.530965, Lon: -6.150384

Elevation: 120

Station Type: Vantage VUE

http://meteogerena.blogspot.com.es/

High Low Average
Temperature 72.7°F22.6°C 58.5°F14.7°C 67.0°F19.4°C
Dew Point 48.2°F9.0°C 43.4°F6.3°C 45.6°F7.6°C
Winds 12.0 mph 19.3 kmh 1.0 mph 1.6 kmh 9.0 mph NW14.5 kmh NW
Wind Gusts 24.0 mph38.6 kmh 3.0 mph4.8 kmh 17.0 mph27.4 kmh
Humidity 59% 36% 47%
Pressure 30.14 in1020.7 mb 30.05 in1017.6 mb -
Precipitation 0.00 in0.0 mm - -
Hour Temp Dew Point Humidity Winds Wind Gusts Pressure Precip Precip Rate Daily Precip Total
09:21 AM 58.5°F14.7°C 44.2°F6.8°C 59% 11.0 mph NW17.7 kmh NW 17.0 mph27.4 kmh 30.11 in1019.6 mb 0.00 in0.0 mm 0.00 in0.0 mm 0.00 in0.0 mm
09:22 AM 58.5°F14.7°C 44.2°F6.8°C 59% 11.0 mph NNW17.7 kmh NNW 17.0 mph27.4 kmh 30.11 in1019.6 mb 0.00 in0.0 mm 0.00 in0.0 mm 0.00 in0.0 mm
09:23 AM 58.5°F14.7°C 44.2°F6.8°C 59% 11.0 mph NNW17.7 kmh NNW 17.0 mph27.4 kmh 30.11 in1019.6 mb 0.00 in0.0 mm 0.00 in0.0 mm 0.00 in0.0 mm
09:24 AM 58.5°F14.7°C 43.7°F6.5°C 58% 11.0 mph NNW17.7 kmh NNW 17.0 mph27.4 kmh 30.11 in1019.6 mb 0.00 in0.0 mm 0.00 in0.0 mm 0.00 in0.0 mm
09:25 AM 58.5°F14.7°C 43.7°F6.5°C 58% 11.0 mph NNW17.7 kmh NNW 17.0 mph27.4 kmh 30.11 in1019.6 mb 0.00 in0.0 mm 0.00 in0.0 mm 0.00 in0.0 mm
09:26 AM 58.6°F14.8°C 44.3°F6.8°C 59% 11.0 mph NNW17.7 kmh NNW 17.0 mph27.4 kmh 30.11 in1019.6 mb 0.00 in0.0 mm 0.00 in0.0 mm 0.00 in0.0 mm
09:27 AM 58.6°F14.8°C 43.9°F6.6°C 58% 11.0 mph NNW17.7 kmh NNW 17.0 mph27.4 kmh 30.11 in1019.6 mb 0.00 in0.0 mm 0.00 in0.0 mm 0.00 in0.0 mm
09:28 AM 58.6°F14.8°C 43.9°F6.6°C 58% 11.0 mph NNW17.7 kmh NNW 17.0 mph27.4 kmh 30.11 in1019.6 mb 0.00 in0.0 mm 0.00 in0.0 mm 0.00 in0.0 mm
09:29 AM 58.6°F14.8°C 43.9°F6.6°C 58% 11.0 mph NNW17.7 kmh NNW 17.0 mph27.4 kmh 30.11 in1019.6 mb 0.00 in0.0 mm 0.00 in0.0 mm 0.00 in0.0 mm
09:30 AM 58.6°F14.8°C 43.9°F6.6°C 58% 11.0 mph NNW17.7 kmh NNW 17.0 mph27.4 kmh 30.11 in1019.6 mb 0.00 in0.0 mm 0.00 in0.0 mm 0.00 in0.0 mm
09:31 AM 58.8°F14.9°C 44.1°F6.7°C 58% 11.0 mph NNW17.7 kmh NNW 16.0 mph25.7 kmh 30.11 in1019.6 mb 0.00 in0.0 mm 0.00 in0.0 mm 0.00 in0.0 mm
09:32 AM 58.8°F14.9°C 44.1°F6.7°C 58% 11.0 mph NNW17.7 kmh NNW 16.0 mph25.7 kmh 30.11 in1019.6 mb 0.00 in0.0 mm 0.00 in0.0 mm 0.00 in0.0 mm
09:33 AM 58.8°F14.9°C 44.1°F6.7°C 58% 11.0 mph NNW17.7 kmh NNW 16.0 mph25.7 kmh 30.11 in1019.6 mb 0.00 in0.0 mm 0.00 in0.0 mm 0.00 in0.0 mm
09:34 AM 58.8°F14.9°C 44.1°F6.7°C 58% 11.0 mph NNW17.7 kmh NNW 15.0 mph24.1 kmh 30.11 in1019.6 mb 0.00 in0.0 mm 0.00 in0.0 mm 0.00 in0.0 mm
09:35 AM 58.8°F14.9°C 44.1°F6.7°C 58% 11.0 mph NNW17.7 kmh NNW 18.0 mph29.0 kmh 30.11 in1019.6 mb 0.00 in0.0 mm 0.00 in0.0 mm 0.00 in0.0 mm
09:36 AM 58.8°F14.9°C 44.1°F6.7°C 58% 10.0 mph NNW16.1 kmh NNW 18.0 mph29.0 kmh 30.11 in1019.6 mb 0.00 in0.0 mm 0.00 in0.0 mm 0.00 in0.0 mm
09:37 AM 58.8°F14.9°C 44.1°F6.7°C 58% 10.0 mph NNW16.1 kmh NNW 18.0 mph29.0 kmh 30.11 in1019.6 mb 0.00 in0.0 mm 0.00 in0.0 mm 0.00 in0.0 mm
09:38 AM 58.8°F14.9°C 43.6°F6.4°C 57% 10.0 mph NNW16.1 kmh NNW 18.0 mph29.0 kmh 30.11 in1019.6 mb 0.00 in0.0 mm 0.00 in0.0 mm 0.00 in0.0 mm
09:39 AM 58.8°F14.9°C 43.6°F6.4°C 57% 10.0 mph NNW16.1 kmh NNW 18.0 mph29.0 kmh 30.11 in1019.6 mb 0.00 in0.0 mm 0.00 in0.0 mm 0.00 in0.0 mm
09:40 AM 58.6°F14.8°C 43.4°F6.3°C 57% 10.0 mph NNW16.1 kmh NNW 18.0 mph29.0 kmh 30.12 in1020.0 mb 0.00 in0.0 mm 0.00 in0.0 mm 0.00 in0.0 mm
09:41 AM 58.6°F14.8°C 43.4°F6.3°C 57% 10.0 mph NNW16.1 kmh NNW 18.0 mph29.0 kmh 30.12 in1020.0 mb 0.00 in0.0 mm 0.00 in0.0 mm 0.00 in0.0 mm
09:42 AM 58.6°F14.8°C 43.9°F6.6°C 58% 10.0 mph NNW16.1 kmh NNW 18.0 mph29.0 kmh 30.11 in1019.6 mb 0.00 in0.0 mm 0.00 in0.0 mm 0.00 in0.0 mm
09:43 AM 58.6°F14.8°C 43.9°F6.6°C 58% 10.0 mph NNW16.1 kmh NNW 18.0 mph29.0 kmh 30.12 in1020.0 mb 0.00 in0.0 mm 0.00 in0.0 mm 0.00 in0.0 mm
09:44 AM 58.6°F14.8°C 43.9°F6.6°C 58% 10.0 mph NNW16.1 kmh NNW 18.0 mph29.0 kmh 30.12 in1020.0 mb 0.00 in0.0 mm 0.00 in0.0 mm 0.00 in0.0 mm
09:45 AM 58.6°F14.8°C 43.9°F6.6°C 58% 10.0 mph NNW16.1 kmh NNW 17.0 mph27.4 kmh 30.12 in1020.0 mb 0.00 in0.0 mm 0.00 in0.0 mm 0.00 in0.0 mm
09:46 AM 58.6°F14.8°C 43.9°F6.6°C 58% 10.0 mph NNW16.1 kmh NNW 17.0 mph27.4 kmh 30.12 in1020.0 mb 0.00 in0.0 mm 0.00 in0.0 mm 0.00 in0.0 mm
09:47 AM 58.6°F14.8°C 43.4°F6.3°C 57% 10.0 mph NNW16.1 kmh NNW 17.0 mph27.4 kmh 30.12 in1020.0 mb 0.00 in0.0 mm 0.00 in0.0 mm 0.00 in0.0 mm
09:48 AM 58.6°F14.8°C 43.9°F6.6°C 58% 10.0 mph NNW16.1 kmh NNW 17.0 mph27.4 kmh 30.12 in1020.0 mb 0.00 in0.0 mm 0.00 in0.0 mm 0.00 in0.0 mm
09:49 AM 58.6°F14.8°C 43.9°F6.6°C 58% 11.0 mph NNW17.7 kmh NNW 17.0 mph27.4 kmh 30.12 in1020.0 mb 0.00 in0.0 mm 0.00 in0.0 mm 0.00 in0.0 mm
09:50 AM 58.6°F14.8°C 43.4°F6.3°C 57% 11.0 mph NNW17.7 kmh NNW 17.0 mph27.4 kmh 30.12 in1020.0 mb 0.00 in0.0 mm 0.00 in0.0 mm 0.00 in0.0 mm
09:51 AM 58.6°F14.8°C 43.9°F6.6°C 58% 11.0 mph NNW17.7 kmh NNW 17.0 mph27.4 kmh 30.12 in1020.0 mb 0.00 in0.0 mm 0.00 in0.0 mm 0.00 in0.0 mm
09:52 AM 58.6°F14.8°C 43.4°F6.3°C 57% 10.0 mph NNW16.1 kmh NNW 17.0 mph27.4 kmh 30.12 in1020.0 mb 0.00 in0.0 mm 0.00 in0.0 mm 0.00 in0.0 mm
09:53 AM 58.6°F14.8°C 43.9°F6.6°C 58% 10.0 mph NNW16.1 kmh NNW 17.0 mph27.4 kmh 30.12 in1020.0 mb 0.00 in0.0 mm 0.00 in0.0 mm 0.00 in0.0 mm
09:54 AM 58.6°F14.8°C 43.9°F6.6°C 58% 10.0 mph NNW16.1 kmh NNW 16.0 mph25.7 kmh 30.12 in1020.0 mb 0.00 in0.0 mm 0.00 in0.0 mm 0.00 in0.0 mm
09:55 AM 58.6°F14.8°C 43.4°F6.3°C 57% 10.0 mph NNW16.1 kmh NNW 16.0 mph25.7 kmh 30.12 in1020.0 mb 0.00 in0.0 mm 0.00 in0.0 mm 0.00 in0.0 mm
09:56 AM 58.6°F14.8°C 43.4°F6.3°C 57% 10.0 mph NNW16.1 kmh NNW 16.0 mph25.7 kmh 30.12 in1020.0 mb 0.00 in0.0 mm 0.00 in0.0 mm 0.00 in0.0 mm
09:57 AM 58.6°F14.8°C 43.9°F6.6°C 58% 10.0 mph NNW16.1 kmh NNW 16.0 mph25.7 kmh 30.12 in1020.0 mb 0.00 in0.0 mm 0.00 in0.0 mm 0.00 in0.0 mm
09:58 AM 58.8°F14.9°C 44.1°F6.7°C 58% 10.0 mph NNW16.1 kmh NNW 16.0 mph25.7 kmh 30.12 in1020.0 mb 0.00 in0.0 mm 0.00 in0.0 mm 0.00 in0.0 mm
09:59 AM 58.8°F14.9°C 43.6°F6.4°C 57% 9.0 mph NNW14.5 kmh NNW 16.0 mph25.7 kmh 30.12 in1020.0 mb 0.00 in0.0 mm 0.00 in0.0 mm 0.00 in0.0 mm
10:00 AM 58.8°F14.9°C 43.6°F6.4°C 57% 9.0 mph NNW14.5 kmh NNW 16.0 mph25.7 kmh 30.12 in1020.0 mb 0.00 in0.0 mm 0.00 in0.0 mm 0.00 in0.0 mm
10:01 AM 58.8°F14.9°C 43.6°F6.4°C 57% 9.0 mph NNW14.5 kmh NNW 16.0 mph25.7 kmh 30.12 in1020.0 mb 0.00 in0.0 mm 0.00 in0.0 mm 0.00 in0.0 mm
10:02 AM 58.8°F14.9°C 43.6°F6.4°C 57% 9.0 mph NNW14.5 kmh NNW 16.0 mph25.7 kmh 30.12 in1020.0 mb 0.00 in0.0 mm 0.00 in0.0 mm 0.00 in0.0 mm
10:03 AM 58.8°F14.9°C 43.6°F6.4°C 57% 9.0 mph NNW14.5 kmh NNW 16.0 mph25.7 kmh 30.12 in1020.0 mb 0.00 in0.0 mm 0.00 in0.0 mm 0.00 in0.0 mm
10:04 AM 59.0°F15.0°C 43.8°F6.6°C 57% 9.0 mph NNW14.5 kmh NNW 16.0 mph25.7 kmh 30.12 in1020.0 mb 0.00 in0.0 mm 0.00 in0.0 mm 0.00 in0.0 mm
10:05 AM 59.0°F15.0°C 43.8°F6.6°C 57% 9.0 mph NNW14.5 kmh NNW 16.0 mph25.7 kmh 30.12 in1020.0 mb 0.00 in0.0 mm 0.00 in0.0 mm 0.00 in0.0 mm
10:06 AM 59.2°F15.1°C 43.9°F6.6°C 57% 9.0 mph NNW14.5 kmh NNW 16.0 mph25.7 kmh 30.12 in1020.0 mb 0.00 in0.0 mm 0.00 in0.0 mm 0.00 in0.0 mm
10:07 AM 59.2°F15.1°C 43.9°F6.6°C 57% 9.0 mph NNW14.5 kmh NNW 18.0 mph29.0 kmh 30.12 in1020.0 mb 0.00 in0.0 mm 0.00 in0.0 mm 0.00 in0.0 mm
10:08 AM 59.2°F15.1°C 43.5°F6.4°C 56% 9.0 mph NNW14.5 kmh NNW 18.0 mph29.0 kmh 30.12 in1020.0 mb 0.00 in0.0 mm 0.00 in0.0 mm 0.00 in0.0 mm
10:09 AM 59.4°F15.2°C 43.7°F6.5°C 56% 9.0 mph NNW14.5 kmh NNW 18.0 mph29.0 kmh 30.12 in1020.0 mb 0.00 in0.0 mm 0.00 in0.0 mm 0.00 in0.0 mm
10:10 AM 59.4°F15.2°C 43.7°F6.5°C 56% 9.0 mph NNW14.5 kmh NNW 18.0 mph29.0 kmh 30.12 in1020.0 mb 0.00 in0.0 mm 0.00 in0.0 mm 0.00 in0.0 mm
10:11 AM 59.4°F15.2°C 43.7°F6.5°C 56% 9.0 mph NNW14.5 kmh NNW 18.0 mph29.0 kmh 30.12 in1020.0 mb 0.00 in0.0 mm 0.00 in0.0 mm 0.00 in0.0 mm
10:12 AM 59.5°F15.3°C 43.8°F6.6°C 56% 9.0 mph NNW14.5 kmh NNW 18.0 mph29.0 kmh 30.12 in1020.0 mb 0.00 in0.0 mm 0.00 in0.0 mm 0.00 in0.0 mm
10:13 AM 59.5°F15.3°C 43.8°F6.6°C 56% 9.0 mph NNW14.5 kmh NNW 18.0 mph29.0 kmh 30.12 in1020.0 mb 0.00 in0.0 mm 0.00 in0.0 mm 0.00 in0.0 mm
10:14 AM 59.5°F15.3°C 43.8°F6.6°C 56% 9.0 mph NNW14.5 kmh NNW 18.0 mph29.0 kmh 30.12 in1020.0 mb 0.00 in0.0 mm 0.00 in0.0 mm 0.00 in0.0 mm
10:15 AM 59.7°F15.4°C 44.0°F6.7°C 56% 9.0 mph NNW14.5 kmh NNW 18.0 mph29.0 kmh 30.12 in1020.0 mb 0.00 in0.0 mm 0.00 in0.0 mm 0.00 in0.0 mm
10:16 AM 59.7°F15.4°C 44.0°F6.7°C 56% 9.0 mph NNW14.5 kmh NNW 18.0 mph29.0 kmh 30.12 in1020.0 mb 0.00 in0.0 mm 0.00 in0.0 mm 0.00 in0.0 mm
10:17 AM 59.9°F15.5°C 43.7°F6.5°C 55% 9.0 mph NNW14.5 kmh NNW 18.0 mph29.0 kmh 30.12 in1020.0 mb 0.00 in0.0 mm 0.00 in0.0 mm 0.00 in0.0 mm
10:18 AM 60.1°F15.6°C 44.3°F6.8°C 56% 9.0 mph NNW14.5 kmh NNW 17.0 mph27.4 kmh 30.12 in1020.0 mb 0.00 in0.0 mm 0.00 in0.0 mm 0.00 in0.0 mm
10:19 AM 60.1°F15.6°C 43.9°F6.6°C 55% 9.0 mph NNW14.5 kmh NNW 17.0 mph27.4 kmh 30.12 in1020.0 mb 0.00 in0.0 mm 0.00 in0.0 mm 0.00 in0.0 mm
10:20 AM 60.3°F15.7°C 44.0°F6.7°C 55% 9.0 mph NNW14.5 kmh NNW 17.0 mph27.4 kmh 30.12 in1020.0 mb 0.00 in0.0 mm 0.00 in0.0 mm 0.00 in0.0 mm
10:21 AM 60.3°F15.7°C 44.0°F6.7°C 55% 9.0 mph NNW14.5 kmh NNW 18.0 mph29.0 kmh 30.12 in1020.0 mb 0.00 in0.0 mm 0.00 in0.0 mm 0.00 in0.0 mm
10:22 AM 60.4°F15.8°C 43.7°F6.5°C 54% 9.0 mph NNW14.5 kmh NNW 18.0 mph29.0 kmh 30.12 in1020.0 mb 0.00 in0.0 mm 0.00 in0.0 mm 0.00 in0.0 mm
10:23 AM 60.4°F15.8°C 43.7°F6.5°C 54% 9.0 mph NNW14.5 kmh NNW 18.0 mph29.0 kmh 30.12 in1020.0 mb 0.00 in0.0 mm 0.00 in0.0 mm 0.00 in0.0 mm
10:24 AM 60.4°F15.8°C 43.7°F6.5°C 54% 9.0 mph NNW14.5 kmh NNW 18.0 mph29.0 kmh 30.12 in1020.0 mb 0.00 in0.0 mm 0.00 in0.0 mm 0.00 in0.0 mm
10:25 AM 60.6°F15.9°C 43.9°F6.6°C 54% 9.0 mph NNW14.5 kmh NNW 18.0 mph29.0 kmh 30.12 in1020.0 mb 0.00 in0.0 mm 0.00 in0.0 mm 0.00 in0.0 mm
10:26 AM 60.6°F15.9°C 44.4°F6.9°C 55% 9.0 mph NNW14.5 kmh NNW 18.0 mph29.0 kmh 30.12 in1020.0 mb 0.00 in0.0 mm 0.00 in0.0 mm 0.00 in0.0 mm
10:27 AM 60.8°F16.0°C 44.5°F6.9°C 55% 9.0 mph NNW14.5 kmh NNW 18.0 mph29.0 kmh 30.12 in1020.0 mb 0.00 in0.0 mm 0.00 in0.0 mm 0.00 in0.0 mm
10:28 AM 61.0°F16.1°C 44.2°F6.8°C 54% 9.0 mph NNW14.5 kmh NNW 18.0 mph29.0 kmh 30.12 in1020.0 mb 0.00 in0.0 mm 0.00 in0.0 mm 0.00 in0.0 mm
10:29 AM 61.0°F16.1°C 44.2°F6.8°C 54% 9.0 mph NNW14.5 kmh NNW 18.0 mph29.0 kmh 30.12 in1020.0 mb 0.00 in0.0 mm 0.00 in0.0 mm 0.00 in0.0 mm
10:30 AM 61.2°F16.2°C 44.4°F6.9°C 54% 9.0 mph NNW14.5 kmh NNW 18.0 mph29.0 kmh 30.12 in1020.0 mb 0.00 in0.0 mm 0.00 in0.0 mm 0.00 in0.0 mm
10:31 AM 61.2°F16.2°C 44.4°F6.9°C 54% 9.0 mph NNW14.5 kmh NNW 18.0 mph29.0 kmh 30.12 in1020.0 mb 0.00 in0.0 mm 0.00 in0.0 mm 0.00 in0.0 mm
10:32 AM 61.3°F16.3°C 44.1°F6.7°C 53% 10.0 mph NNW16.1 kmh NNW 18.0 mph29.0 kmh 30.12 in1020.0 mb 0.00 in0.0 mm 0.00 in0.0 mm 0.00 in0.0 mm
10:33 AM 61.3°F16.3°C 44.1°F6.7°C 53% 9.0 mph NNW14.5 kmh NNW 18.0 mph29.0 kmh 30.12 in1020.0 mb 0.00 in0.0 mm 0.00 in0.0 mm 0.00 in0.0 mm
10:34 AM 61.5°F16.4°C 44.2°F6.8°C 53% 9.0 mph NNW14.5 kmh NNW 18.0 mph29.0 kmh 30.12 in1020.0 mb 0.00 in0.0 mm 0.00 in0.0 mm 0.00 in0.0 mm
10:35 AM 61.7°F16.5°C 44.9°F7.2°C 54% 9.0 mph NNW14.5 kmh NNW 18.0 mph29.0 kmh 30.12 in1020.0 mb 0.00 in0.0 mm 0.00 in0.0 mm 0.00 in0.0 mm
10:36 AM 62.1°F16.7°C 45.2°F7.3°C 54% 9.0 mph NNW14.5 kmh NNW 18.0 mph29.0 kmh 30.12 in1020.0 mb 0.00 in0.0 mm 0.00 in0.0 mm 0.00 in0.0 mm
10:37 AM 62.1°F16.7°C 44.7°F7.1°C 53% 9.0 mph NNW14.5 kmh NNW 18.0 mph29.0 kmh 30.13 in1020.3 mb 0.00 in0.0 mm 0.00 in0.0 mm 0.00 in0.0 mm
10:38 AM 62.2°F16.8°C 44.4°F6.9°C 52% 9.0 mph NNW14.5 kmh NNW 18.0 mph29.0 kmh 30.12 in1020.0 mb 0.00 in0.0 mm 0.00 in0.0 mm 0.00 in0.0 mm
10:39 AM 62.2°F16.8°C 44.4°F6.9°C 52% 9.0 mph NNW14.5 kmh NNW 17.0 mph27.4 kmh 30.13 in1020.3 mb 0.00 in0.0 mm 0.00 in0.0 mm 0.00 in0.0 mm
10:40 AM 62.4°F16.9°C 44.6°F7.0°C 52% 9.0 mph NNW14.5 kmh NNW 17.0 mph27.4 kmh 30.13 in1020.3 mb 0.00 in0.0 mm 0.00 in0.0 mm 0.00 in0.0 mm
10:41 AM 62.4°F16.9°C 44.0°F6.7°C 51% 9.0 mph NNW14.5 kmh NNW 17.0 mph27.4 kmh 30.13 in1020.3 mb 0.00 in0.0 mm 0.00 in0.0 mm 0.00 in0.0 mm
10:42 AM 62.6°F17.0°C 44.2°F6.8°C 51% 9.0 mph N14.5 kmh N 17.0 mph27.4 kmh 30.13 in1020.3 mb 0.00 in0.0 mm 0.00 in0.0 mm 0.00 in0.0 mm
10:43 AM 62.8°F17.1°C 44.4°F6.9°C 51% 9.0 mph NNW14.5 kmh NNW 18.0 mph29.0 kmh 30.13 in1020.3 mb 0.00 in0.0 mm 0.00 in0.0 mm 0.00 in0.0 mm
10:44 AM 62.6°F17.0°C 44.2°F6.8°C 51% 9.0 mph NNW14.5 kmh NNW 18.0 mph29.0 kmh 30.13 in1020.3 mb 0.00 in0.0 mm 0.00 in0.0 mm 0.00 in0.0 mm
10:45 AM 62.8°F17.1°C 44.4°F6.9°C 51% 9.0 mph NNW14.5 kmh NNW 18.0 mph29.0 kmh 30.12 in1020.0 mb 0.00 in0.0 mm 0.00 in0.0 mm 0.00 in0.0 mm
10:46 AM 62.8°F17.1°C 44.4°F6.9°C 51% 9.0 mph NNW14.5 kmh NNW 18.0 mph29.0 kmh 30.13 in1020.3 mb 0.00 in0.0 mm 0.00 in0.0 mm 0.00 in0.0 mm
10:47 AM 62.8°F17.1°C 44.4°F6.9°C 51% 9.0 mph NNW14.5 kmh NNW 18.0 mph29.0 kmh 30.13 in1020.3 mb 0.00 in0.0 mm 0.00 in0.0 mm 0.00 in0.0 mm
10:48 AM 62.6°F17.0°C 44.2°F6.8°C 51% 9.0 mph NNW14.5 kmh NNW 18.0 mph29.0 kmh 30.13 in1020.3 mb 0.00 in0.0 mm 0.00 in0.0 mm 0.00 in0.0 mm
10:49 AM 62.4°F16.9°C 44.0°F6.7°C 51% 9.0 mph NNW14.5 kmh NNW 21.0 mph33.8 kmh 30.13 in1020.3 mb 0.00 in0.0 mm 0.00 in0.0 mm 0.00 in0.0 mm
10:50 AM 62.4°F16.9°C 44.0°F6.7°C 51% 9.0 mph NNW14.5 kmh NNW 21.0 mph33.8 kmh 30.13 in1020.3 mb 0.00 in0.0 mm 0.00 in0.0 mm 0.00 in0.0 mm
10:51 AM 62.4°F16.9°C 44.6°F7.0°C 52% 9.0 mph NNW14.5 kmh NNW 21.0 mph33.8 kmh 30.13 in1020.3 mb 0.00 in0.0 mm 0.00 in0.0 mm 0.00 in0.0 mm
10:52 AM 62.4°F16.9°C 44.0°F6.7°C 51% 10.0 mph NNW16.1 kmh NNW 21.0 mph33.8 kmh 30.13 in1020.3 mb 0.00 in0.0 mm 0.00 in0.0 mm 0.00 in0.0 mm
10:53 AM 62.4°F16.9°C 44.0°F6.7°C 51% 10.0 mph NNW16.1 kmh NNW 21.0 mph33.8 kmh 30.13 in1020.3 mb 0.00 in0.0 mm 0.00 in0.0 mm 0.00 in0.0 mm
10:54 AM 62.4°F16.9°C 44.0°F6.7°C 51% 10.0 mph NNW16.1 kmh NNW 21.0 mph33.8 kmh 30.13 in1020.3 mb 0.00 in0.0 mm 0.00 in0.0 mm 0.00 in0.0 mm
10:55 AM 62.4°F16.9°C 44.0°F6.7°C 51% 10.0 mph NNW16.1 kmh NNW 21.0 mph33.8 kmh 30.13 in1020.3 mb 0.00 in0.0 mm 0.00 in0.0 mm 0.00 in0.0 mm
10:56 AM 62.4°F16.9°C 44.0°F6.7°C 51% 10.0 mph NNW16.1 kmh NNW 21.0 mph33.8 kmh 30.13 in1020.3 mb 0.00 in0.0 mm 0.00 in0.0 mm 0.00 in0.0 mm
10:57 AM 62.4°F16.9°C 44.0°F6.7°C 51% 11.0 mph NNW17.7 kmh NNW 21.0 mph33.8 kmh 30.13 in1020.3 mb 0.00 in0.0 mm 0.00 in0.0 mm 0.00 in0.0 mm
10:58 AM 62.4°F16.9°C 44.0°F6.7°C 51% 11.0 mph NNW17.7 kmh NNW 21.0 mph33.8 kmh 30.13 in1020.3 mb 0.00 in0.0 mm 0.00 in0.0 mm 0.00 in0.0 mm
10:59 AM 62.4°F16.9°C 44.0°F6.7°C 51% 11.0 mph NNW17.7 kmh NNW 19.0 mph30.6 kmh 30.13 in1020.3 mb 0.00 in0.0 mm 0.00 in0.0 mm 0.00 in0.0 mm
11:00 AM 62.4°F16.9°C 44.0°F6.7°C 51% 11.0 mph NNW17.7 kmh NNW 20.0 mph32.2 kmh 30.13 in1020.3 mb 0.00 in0.0 mm 0.00 in0.0 mm 0.00 in0.0 mm
11:01 AM 62.4°F16.9°C 44.6°F7.0°C 52% 11.0 mph NNW17.7 kmh NNW 20.0 mph32.2 kmh 30.13 in1020.3 mb 0.00 in0.0 mm 0.00 in0.0 mm 0.00 in0.0 mm
11:02 AM 62.4°F16.9°C 44.6°F7.0°C 52% 11.0 mph NNW17.7 kmh NNW 20.0 mph32.2 kmh 30.13 in1020.3 mb 0.00 in0.0 mm 0.00 in0.0 mm 0.00 in0.0 mm
11:03 AM 62.4°F16.9°C 44.6°F7.0°C 52% 11.0 mph NNW17.7 kmh NNW 20.0 mph32.2 kmh 30.13 in1020.3 mb 0.00 in0.0 mm 0.00 in0.0 mm 0.00 in0.0 mm
11:04 AM 62.4°F16.9°C 44.0°F6.7°C 51% 12.0 mph NNW19.3 kmh NNW 20.0 mph32.2 kmh 30.13 in1020.3 mb 0.00 in0.0 mm 0.00 in0.0 mm 0.00 in0.0 mm
11:05 AM 62.4°F16.9°C 44.0°F6.7°C 51% 11.0 mph NNW17.7 kmh NNW 20.0 mph32.2 kmh 30.13 in1020.3 mb 0.00 in0.0 mm 0.00 in0.0 mm 0.00 in0.0 mm
11:06 AM 62.4°F16.9°C 44.0°F6.7°C 51% 11.0 mph NNW17.7 kmh NNW 20.0 mph32.2 kmh 30.13 in1020.3 mb 0.00 in0.0 mm 0.00 in0.0 mm 0.00 in0.0 mm
11:07 AM 62.4°F16.9°C 44.6°F7.0°C 52% 11.0 mph NNW17.7 kmh NNW 20.0 mph32.2 kmh 30.13 in1020.3 mb 0.00 in0.0 mm 0.00 in0.0 mm 0.00 in0.0 mm
11:08 AM 62.6°F17.0°C 44.2°F6.8°C 51% 11.0 mph NNW17.7 kmh NNW 20.0 mph32.2 kmh 30.13 in1020.3 mb 0.00 in0.0 mm 0.00 in0.0 mm 0.00 in0.0 mm
11:09 AM 62.6°F17.0°C 44.2°F6.8°C 51% 11.0 mph NNW17.7 kmh NNW 20.0 mph32.2 kmh 30.13 in1020.3 mb 0.00 in0.0 mm 0.00 in0.0 mm 0.00 in0.0 mm
11:10 AM 62.8°F17.1°C 44.4°F6.9°C 51% 11.0 mph NNW17.7 kmh NNW 19.0 mph30.6 kmh 30.13 in1020.3 mb 0.00 in0.0 mm 0.00 in0.0 mm 0.00 in0.0 mm
11:11 AM 62.8°F17.1°C 44.4°F6.9°C 51% 11.0 mph NNW17.7 kmh NNW 19.0 mph30.6 kmh 30.13 in1020.3 mb 0.00 in0.0 mm 0.00 in0.0 mm 0.00 in0.0 mm
11:12 AM 62.8°F17.1°C 44.4°F6.9°C 51% 11.0 mph NNW17.7 kmh NNW 20.0 mph32.2 kmh 30.13 in1020.3 mb 0.00 in0.0 mm 0.00 in0.0 mm 0.00 in0.0 mm
11:13 AM 62.8°F17.1°C 44.4°F6.9°C 51% 11.0 mph NNW17.7 kmh NNW 20.0 mph32.2 kmh 30.13 in1020.3 mb 0.00 in0.0 mm 0.00 in0.0 mm 0.00 in0.0 mm
11:14 AM 62.8°F17.1°C 44.4°F6.9°C 51% 11.0 mph NNW17.7 kmh NNW 20.0 mph32.2 kmh 30.13 in1020.3 mb 0.00 in0.0 mm 0.00 in0.0 mm 0.00 in0.0 mm
11:15 AM 63.0°F17.2°C 44.5°F6.9°C 51% 11.0 mph NNW17.7 kmh NNW 20.0 mph32.2 kmh 30.13 in1020.3 mb 0.00 in0.0 mm 0.00 in0.0 mm 0.00 in0.0 mm
11:16 AM 63.1°F17.3°C 44.7°F7.1°C 51% 11.0 mph NNW17.7 kmh NNW 20.0 mph32.2 kmh 30.13 in1020.3 mb 0.00 in0.0 mm 0.00 in0.0 mm 0.00 in0.0 mm
11:17 AM 63.3°F17.4°C 44.9°F7.2°C 51% 11.0 mph NNW17.7 kmh NNW 20.0 mph32.2 kmh 30.13 in1020.3 mb 0.00 in0.0 mm 0.00 in0.0 mm 0.00 in0.0 mm
11:18 AM 63.3°F17.4°C 44.9°F7.2°C 51% 11.0 mph NNW17.7 kmh NNW 20.0 mph32.2 kmh 30.13 in1020.3 mb 0.00 in0.0 mm 0.00 in0.0 mm 0.00 in0.0 mm
11:19 AM 63.3°F17.4°C 44.4°F6.9°C 50% 11.0 mph NNW17.7 kmh NNW 20.0 mph32.2 kmh 30.13 in1020.3 mb 0.00 in0.0 mm 0.00 in0.0 mm 0.00 in0.0 mm
11:20 AM 63.7°F17.6°C 44.7°F7.1°C 50% 11.0 mph NNW17.7 kmh NNW 20.0 mph32.2 kmh 30.13 in1020.3 mb 0.00 in0.0 mm 0.00 in0.0 mm 0.00 in0.0 mm
11:21 AM 63.7°F17.6°C 44.7°F7.1°C 50% 11.0 mph NNW17.7 kmh NNW 20.0 mph32.2 kmh 30.13 in1020.3 mb 0.00 in0.0 mm 0.00 in0.0 mm 0.00 in0.0 mm
11:22 AM 63.9°F17.7°C 44.3°F6.8°C 49% 10.0 mph NNW16.1 kmh NNW 19.0 mph30.6 kmh 30.13 in1020.3 mb 0.00 in0.0 mm 0.00 in0.0 mm 0.00 in0.0 mm
11:23 AM 63.9°F17.7°C 44.3°F6.8°C 49% 10.0 mph NNW16.1 kmh NNW 17.0 mph27.4 kmh 30.13 in1020.3 mb 0.00 in0.0 mm 0.00 in0.0 mm 0.00 in0.0 mm
11:24 AM 63.9°F17.7°C 44.3°F6.8°C 49% 10.0 mph NNW16.1 kmh NNW 17.0 mph27.4 kmh 30.13 in1020.3 mb 0.00 in0.0 mm 0.00 in0.0 mm 0.00 in0.0 mm
11:25 AM 64.0°F17.8°C 45.0°F7.2°C 50% 10.0 mph NNW16.1 kmh NNW 17.0 mph27.4 kmh 30.13 in1020.3 mb 0.00 in0.0 mm 0.00 in0.0 mm 0.00 in0.0 mm
11:26 AM 64.2°F17.9°C 45.2°F7.3°C 50% 10.0 mph NNW16.1 kmh NNW 17.0 mph27.4 kmh 30.13 in1020.3 mb 0.00 in0.0 mm 0.00 in0.0 mm 0.00 in0.0 mm
11:27 AM 64.6°F18.1°C 44.4°F6.9°C 48% 10.0 mph NNW16.1 kmh NNW 17.0 mph27.4 kmh 30.13 in1020.3 mb 0.00 in0.0 mm 0.00 in0.0 mm 0.00 in0.0 mm
11:28 AM 64.6°F18.1°C 44.4°F6.9°C 48% 10.0 mph NNW16.1 kmh NNW 17.0 mph27.4 kmh 30.13 in1020.3 mb 0.00 in0.0 mm 0.00 in0.0 mm 0.00 in0.0 mm
11:29 AM 64.8°F18.2°C 44.1°F6.7°C 47% 10.0 mph N16.1 kmh N 17.0 mph27.4 kmh 30.13 in1020.3 mb 0.00 in0.0 mm 0.00 in0.0 mm 0.00 in0.0 mm
11:30 AM 64.8°F18.2°C 44.1°F6.7°C 47% 10.0 mph N16.1 kmh N 18.0 mph29.0 kmh 30.13 in1020.3 mb 0.00 in0.0 mm 0.00 in0.0 mm 0.00 in0.0 mm
11:31 AM 64.8°F18.2°C 44.1°F6.7°C 47% 10.0 mph N16.1 kmh N 18.0 mph29.0 kmh 30.13 in1020.3 mb 0.00 in0.0 mm 0.00 in0.0 mm 0.00 in0.0 mm
11:32 AM 64.9°F18.3°C 44.2°F6.8°C 47% 10.0 mph N16.1 kmh N 18.0 mph29.0 kmh 30.13 in1020.3 mb 0.00 in0.0 mm 0.00 in0.0 mm 0.00 in0.0 mm
11:33 AM 65.1°F18.4°C 44.4°F6.9°C 47% 10.0 mph N16.1 kmh N 18.0 mph29.0 kmh 30.13 in1020.3 mb 0.00 in0.0 mm 0.00 in0.0 mm 0.00 in0.0 mm
11:34 AM 65.1°F18.4°C 43.8°F6.6°C 46% 10.0 mph N16.1 kmh N 18.0 mph29.0 kmh 30.13 in1020.3 mb 0.00 in0.0 mm 0.00 in0.0 mm 0.00 in0.0 mm
11:35 AM 65.1°F18.4°C 44.4°F6.9°C 47% 10.0 mph N16.1 kmh N 18.0 mph29.0 kmh 30.13 in1020.3 mb 0.00 in0.0 mm 0.00 in0.0 mm 0.00 in0.0 mm
11:36 AM 65.3°F18.5°C 44.0°F6.7°C 46% 10.0 mph N16.1 kmh N 18.0 mph29.0 kmh 30.13 in1020.3 mb 0.00 in0.0 mm 0.00 in0.0 mm 0.00 in0.0 mm
11:37 AM 65.5°F18.6°C 44.1°F6.7°C 46% 10.0 mph N16.1 kmh N 18.0 mph29.0 kmh 30.13 in1020.3 mb 0.00 in0.0 mm 0.00 in0.0 mm 0.00 in0.0 mm
11:38 AM 65.5°F18.6°C 44.7°F7.1°C 47% 10.0 mph N16.1 kmh N 18.0 mph29.0 kmh 30.13 in1020.3 mb 0.00 in0.0 mm 0.00 in0.0 mm 0.00 in0.0 mm
11:39 AM 65.7°F18.7°C 44.9°F7.2°C 47% 10.0 mph N16.1 kmh N 18.0 mph29.0 kmh 30.13 in1020.3 mb 0.00 in0.0 mm 0.00 in0.0 mm 0.00 in0.0 mm
11:40 AM 65.8°F18.8°C 45.0°F7.2°C 47% 9.0 mph N14.5 kmh N 19.0 mph30.6 kmh 30.13 in1020.3 mb 0.00 in0.0 mm 0.00 in0.0 mm 0.00 in0.0 mm
11:41 AM 65.8°F18.8°C 43.9°F6.6°C 45% 9.0 mph N14.5 kmh N 19.0 mph30.6 kmh 30.13 in1020.3 mb 0.00 in0.0 mm 0.00 in0.0 mm 0.00 in0.0 mm
11:42 AM 65.7°F18.7°C 44.3°F6.8°C 46% 9.0 mph N14.5 kmh N 19.0 mph30.6 kmh 30.13 in1020.3 mb 0.00 in0.0 mm 0.00 in0.0 mm 0.00 in0.0 mm
11:43 AM 65.7°F18.7°C 44.3°F6.8°C 46% 10.0 mph N16.1 kmh N 20.0 mph32.2 kmh 30.13 in1020.3 mb 0.00 in0.0 mm 0.00 in0.0 mm 0.00 in0.0 mm
11:44 AM 65.5°F18.6°C 44.1°F6.7°C 46% 10.0 mph N16.1 kmh N 20.0 mph32.2 kmh 30.13 in1020.3 mb 0.00 in0.0 mm 0.00 in0.0 mm 0.00 in0.0 mm
11:45 AM 65.5°F18.6°C 44.1°F6.7°C 46% 10.0 mph NNW16.1 kmh NNW 20.0 mph32.2 kmh 30.13 in1020.3 mb 0.00 in0.0 mm 0.00 in0.0 mm 0.00 in0.0 mm
11:46 AM 65.7°F18.7°C 44.9°F7.2°C 47% 10.0 mph NNW16.1 kmh NNW 20.0 mph32.2 kmh 30.13 in1020.3 mb 0.00 in0.0 mm 0.00 in0.0 mm 0.00 in0.0 mm
11:47 AM 65.7°F18.7°C 44.3°F6.8°C 46% 10.0 mph NNW16.1 kmh NNW 20.0 mph32.2 kmh 30.13 in1020.3 mb 0.00 in0.0 mm 0.00 in0.0 mm 0.00 in0.0 mm
11:48 AM 65.7°F18.7°C 44.9°F7.2°C 47% 10.0 mph NNW16.1 kmh NNW 20.0 mph32.2 kmh 30.13 in1020.3 mb 0.00 in0.0 mm 0.00 in0.0 mm 0.00 in0.0 mm
11:49 AM 65.5°F18.6°C 44.7°F7.1°C 47% 10.0 mph NNW16.1 kmh NNW 20.0 mph32.2 kmh 30.13 in1020.3 mb 0.00 in0.0 mm 0.00 in0.0 mm 0.00 in0.0 mm
11:50 AM 65.5°F18.6°C 44.1°F6.7°C 46% 11.0 mph NNW17.7 kmh NNW 20.0 mph32.2 kmh 30.13 in1020.3 mb 0.00 in0.0 mm 0.00 in0.0 mm 0.00 in0.0 mm
11:51 AM 65.5°F18.6°C 44.7°F7.1°C 47% 11.0 mph NNW17.7 kmh NNW 20.0 mph32.2 kmh 30.12 in1020.0 mb 0.00 in0.0 mm 0.00 in0.0 mm 0.00 in0.0 mm
11:52 AM 65.5°F18.6°C 44.7°F7.1°C 47% 11.0 mph NNW17.7 kmh NNW 20.0 mph32.2 kmh 30.13 in1020.3 mb 0.00 in0.0 mm 0.00 in0.0 mm 0.00 in0.0 mm
11:53 AM 65.5°F18.6°C 44.7°F7.1°C 47% 11.0 mph NNW17.7 kmh NNW 20.0 mph32.2 kmh 30.12 in1020.0 mb 0.00 in0.0 mm 0.00 in0.0 mm 0.00 in0.0 mm
11:54 AM 65.7°F18.7°C 44.9°F7.2°C 47% 11.0 mph NNW17.7 kmh NNW 20.0 mph32.2 kmh 30.13 in1020.3 mb 0.00 in0.0 mm 0.00 in0.0 mm 0.00 in0.0 mm
11:55 AM 65.8°F18.8°C 45.0°F7.2°C 47% 11.0 mph NNW17.7 kmh NNW 20.0 mph32.2 kmh 30.12 in1020.0 mb 0.00 in0.0 mm 0.00 in0.0 mm 0.00 in0.0 mm
11:56 AM 66.0°F18.9°C 44.6°F7.0°C 46% 11.0 mph NNW17.7 kmh NNW 20.0 mph32.2 kmh 30.12 in1020.0 mb 0.00 in0.0 mm 0.00 in0.0 mm 0.00 in0.0 mm
11:57 AM 66.0°F18.9°C 44.6°F7.0°C 46% 11.0 mph NNW17.7 kmh NNW 20.0 mph32.2 kmh 30.12 in1020.0 mb 0.00 in0.0 mm 0.00 in0.0 mm 0.00 in0.0 mm
11:58 AM 66.0°F18.9°C 44.6°F7.0°C 46% 11.0 mph NNW17.7 kmh NNW 20.0 mph32.2 kmh 30.12 in1020.0 mb 0.00 in0.0 mm 0.00 in0.0 mm 0.00 in0.0 mm
11:59 AM 65.8°F18.8°C 44.5°F6.9°C 46% 11.0 mph N17.7 kmh N 19.0 mph30.6 kmh 30.12 in1020.0 mb 0.00 in0.0 mm 0.00 in0.0 mm 0.00 in0.0 mm
12:00 PM 65.8°F18.8°C 45.0°F7.2°C 47% 11.0 mph N17.7 kmh N 19.0 mph30.6 kmh 30.12 in1020.0 mb 0.00 in0.0 mm 0.00 in0.0 mm 0.00 in0.0 mm
12:01 PM 66.0°F18.9°C 44.6°F7.0°C 46% 10.0 mph N16.1 kmh N 19.0 mph30.6 kmh 30.12 in1020.0 mb 0.00 in0.0 mm 0.00 in0.0 mm 0.00 in0.0 mm
12:02 PM 66.0°F18.9°C 44.6°F7.0°C 46% 10.0 mph N16.1 kmh N 19.0 mph30.6 kmh 30.12 in1020.0 mb 0.00 in0.0 mm 0.00 in0.0 mm 0.00 in0.0 mm
12:03 PM 66.4°F19.1°C 45.5°F7.5°C 47% 10.0 mph NNW16.1 kmh NNW 19.0 mph30.6 kmh 30.12 in1020.0 mb 0.00 in0.0 mm 0.00 in0.0 mm 0.00 in0.0 mm
12:04 PM 66.4°F19.1°C 45.0°F7.2°C 46% 10.0 mph NNW16.1 kmh NNW 19.0 mph30.6 kmh 30.12 in1020.0 mb 0.00 in0.0 mm 0.00 in0.0 mm 0.00 in0.0 mm
12:05 PM 66.6°F19.2°C 45.1°F7.3°C 46% 10.0 mph N16.1 kmh N 19.0 mph30.6 kmh 30.12 in1020.0 mb 0.00 in0.0 mm 0.00 in0.0 mm 0.00 in0.0 mm
12:06 PM 66.7°F19.3°C 45.3°F7.4°C 46% 10.0 mph N16.1 kmh N 19.0 mph30.6 kmh 30.12 in1020.0 mb 0.00 in0.0 mm 0.00 in0.0 mm 0.00 in0.0 mm
12:07 PM 66.7°F19.3°C 45.3°F7.4°C 46% 10.0 mph N16.1 kmh N 19.0 mph30.6 kmh 30.12 in1020.0 mb 0.00 in0.0 mm 0.00 in0.0 mm 0.00 in0.0 mm
12:08 PM 66.7°F19.3°C 45.3°F7.4°C 46% 10.0 mph N16.1 kmh N 19.0 mph30.6 kmh 30.12 in1020.0 mb 0.00 in0.0 mm 0.00 in0.0 mm 0.00 in0.0 mm
12:09 PM 66.7°F19.3°C 45.3°F7.4°C 46% 10.0 mph NNW16.1 kmh NNW 18.0 mph29.0 kmh 30.12 in1020.0 mb 0.00 in0.0 mm 0.00 in0.0 mm 0.00 in0.0 mm
12:10 PM 66.6°F19.2°C 45.1°F7.3°C 46% 10.0 mph NNW16.1 kmh NNW 18.0 mph29.0 kmh 30.12 in1020.0 mb 0.00 in0.0 mm 0.00 in0.0 mm 0.00 in0.0 mm
12:11 PM 66.6°F19.2°C 45.1°F7.3°C 46% 9.0 mph NNW14.5 kmh NNW 18.0 mph29.0 kmh 30.12 in1020.0 mb 0.00 in0.0 mm 0.00 in0.0 mm 0.00 in0.0 mm
12:12 PM 66.6°F19.2°C 45.1°F7.3°C 46% 9.0 mph NNW14.5 kmh NNW 18.0 mph29.0 kmh 30.12 in1020.0 mb 0.00 in0.0 mm 0.00 in0.0 mm 0.00 in0.0 mm
12:13 PM 66.7°F19.3°C 45.3°F7.4°C 46% 9.0 mph N14.5 kmh N 18.0 mph29.0 kmh 30.12 in1020.0 mb 0.00 in0.0 mm 0.00 in0.0 mm 0.00 in0.0 mm
12:14 PM 66.9°F19.4°C 45.5°F7.5°C 46% 9.0 mph N14.5 kmh N 18.0 mph29.0 kmh 30.12 in1020.0 mb 0.00 in0.0 mm 0.00 in0.0 mm 0.00 in0.0 mm
12:15 PM 66.9°F19.4°C 45.5°F7.5°C 46% 9.0 mph N14.5 kmh N 18.0 mph29.0 kmh 30.12 in1020.0 mb 0.00 in0.0 mm 0.00 in0.0 mm 0.00 in0.0 mm
12:16 PM 66.9°F19.4°C 45.5°F7.5°C 46% 9.0 mph N14.5 kmh N 18.0 mph29.0 kmh 30.12 in1020.0 mb 0.00 in0.0 mm 0.00 in0.0 mm 0.00 in0.0 mm
12:17 PM 66.9°F19.4°C 45.5°F7.5°C 46% 9.0 mph N14.5 kmh N 16.0 mph25.7 kmh 30.12 in1020.0 mb 0.00 in0.0 mm 0.00 in0.0 mm 0.00 in0.0 mm
12:18 PM 66.9°F19.4°C 44.9°F7.2°C 45% 9.0 mph N14.5 kmh N 17.0 mph27.4 kmh 30.12 in1020.0 mb 0.00 in0.0 mm 0.00 in0.0 mm 0.00 in0.0 mm
12:19 PM 67.1°F19.5°C 45.6°F7.6°C 46% 9.0 mph N14.5 kmh N 17.0 mph27.4 kmh 30.12 in1020.0 mb 0.00 in0.0 mm 0.00 in0.0 mm 0.00 in0.0 mm
12:20 PM 67.3°F19.6°C 45.2°F7.3°C 45% 9.0 mph NNW14.5 kmh NNW 17.0 mph27.4 kmh 30.12 in1020.0 mb 0.00 in0.0 mm 0.00 in0.0 mm 0.00 in0.0 mm
12:21 PM 67.3°F19.6°C 45.8°F7.7°C 46% 9.0 mph NNW14.5 kmh NNW 17.0 mph27.4 kmh 30.12 in1020.0 mb 0.00 in0.0 mm 0.00 in0.0 mm 0.00 in0.0 mm
12:22 PM 67.3°F19.6°C 45.8°F7.7°C 46% 9.0 mph N14.5 kmh N 17.0 mph27.4 kmh 30.12 in1020.0 mb 0.00 in0.0 mm 0.00 in0.0 mm 0.00 in0.0 mm
12:23 PM 67.3°F19.6°C 45.2°F7.3°C 45% 9.0 mph N14.5 kmh N 17.0 mph27.4 kmh 30.12 in1020.0 mb 0.00 in0.0 mm 0.00 in0.0 mm 0.00 in0.0 mm
12:24 PM 67.3°F19.6°C 45.8°F7.7°C 46% 9.0 mph N14.5 kmh N 17.0 mph27.4 kmh 30.12 in1020.0 mb 0.00 in0.0 mm 0.00 in0.0 mm 0.00 in0.0 mm
12:25 PM 67.5°F19.7°C 45.9°F7.7°C 46% 9.0 mph NNW14.5 kmh NNW 17.0 mph27.4 kmh 30.12 in1020.0 mb 0.00 in0.0 mm 0.00 in0.0 mm 0.00 in0.0 mm
12:26 PM 67.5°F19.7°C 45.9°F7.7°C 46% 9.0 mph NNW14.5 kmh NNW 17.0 mph27.4 kmh 30.12 in1020.0 mb 0.00 in0.0 mm 0.00 in0.0 mm 0.00 in0.0 mm
12:27 PM 67.5°F19.7°C 45.4°F7.4°C 45% 9.0 mph NNW14.5 kmh NNW 17.0 mph27.4 kmh 30.12 in1020.0 mb 0.00 in0.0 mm 0.00 in0.0 mm 0.00 in0.0 mm
12:28 PM 67.6°F19.8°C 45.5°F7.5°C 45% 9.0 mph NNW14.5 kmh NNW 16.0 mph25.7 kmh 30.11 in1019.6 mb 0.00 in0.0 mm 0.00 in0.0 mm 0.00 in0.0 mm
12:29 PM 67.6°F19.8°C 45.5°F7.5°C 45% 9.0 mph NNW14.5 kmh NNW 16.0 mph25.7 kmh 30.12 in1020.0 mb 0.00 in0.0 mm 0.00 in0.0 mm 0.00 in0.0 mm
12:30 PM 67.6°F19.8°C 45.5°F7.5°C 45% 9.0 mph NNW14.5 kmh NNW 16.0 mph25.7 kmh 30.12 in1020.0 mb 0.00 in0.0 mm 0.00 in0.0 mm 0.00 in0.0 mm
12:31 PM 67.6°F19.8°C 45.5°F7.5°C 45% 9.0 mph NNW14.5 kmh NNW 19.0 mph30.6 kmh 30.11 in1019.6 mb 0.00 in0.0 mm 0.00 in0.0 mm 0.00 in0.0 mm
12:32 PM 67.6°F19.8°C 45.5°F7.5°C 45% 9.0 mph NNW14.5 kmh NNW 19.0 mph30.6 kmh 30.11 in1019.6 mb 0.00 in0.0 mm 0.00 in0.0 mm 0.00 in0.0 mm
12:33 PM 67.6°F19.8°C 45.5°F7.5°C 45% 9.0 mph NNW14.5 kmh NNW 19.0 mph30.6 kmh 30.11 in1019.6 mb 0.00 in0.0 mm 0.00 in0.0 mm 0.00 in0.0 mm
12:34 PM 67.8°F19.9°C 45.7°F7.6°C 45% 9.0 mph NNW14.5 kmh NNW 19.0 mph30.6 kmh 30.11 in1019.6 mb 0.00 in0.0 mm 0.00 in0.0 mm 0.00 in0.0 mm
12:35 PM 67.8°F19.9°C 45.7°F7.6°C 45% 9.0 mph NNW14.5 kmh NNW 19.0 mph30.6 kmh 30.11 in1019.6 mb 0.00 in0.0 mm 0.00 in0.0 mm 0.00 in0.0 mm
12:36 PM 67.8°F19.9°C 45.7°F7.6°C 45% 9.0 mph NNW14.5 kmh NNW 19.0 mph30.6 kmh 30.12 in1020.0 mb 0.00 in0.0 mm 0.00 in0.0 mm 0.00 in0.0 mm
12:37 PM 67.8°F19.9°C 45.1°F7.3°C 44% 9.0 mph N14.5 kmh N 19.0 mph30.6 kmh 30.11 in1019.6 mb 0.00 in0.0 mm 0.00 in0.0 mm 0.00 in0.0 mm
12:38 PM 67.8°F19.9°C 45.7°F7.6°C 45% 9.0 mph N14.5 kmh N 19.0 mph30.6 kmh 30.11 in1019.6 mb 0.00 in0.0 mm 0.00 in0.0 mm 0.00 in0.0 mm
12:39 PM 68.0°F20.0°C 45.9°F7.7°C 45% 9.0 mph N14.5 kmh N 19.0 mph30.6 kmh 30.11 in1019.6 mb 0.00 in0.0 mm 0.00 in0.0 mm 0.00 in0.0 mm
12:40 PM 68.2°F20.1°C 46.0°F7.8°C 45% 9.0 mph N14.5 kmh N 19.0 mph30.6 kmh 30.12 in1020.0 mb 0.00 in0.0 mm 0.00 in0.0 mm 0.00 in0.0 mm
12:41 PM 68.0°F20.0°C 45.3°F7.4°C 44% 9.0 mph N14.5 kmh N 19.0 mph30.6 kmh 30.11 in1019.6 mb 0.00 in0.0 mm 0.00 in0.0 mm 0.00 in0.0 mm
12:42 PM 67.8°F19.9°C 45.7°F7.6°C 45% 9.0 mph N14.5 kmh N 17.0 mph27.4 kmh 30.11 in1019.6 mb 0.00 in0.0 mm 0.00 in0.0 mm 0.00 in0.0 mm
12:43 PM 67.8°F19.9°C 45.7°F7.6°C 45% 9.0 mph N14.5 kmh N 17.0 mph27.4 kmh 30.11 in1019.6 mb 0.00 in0.0 mm 0.00 in0.0 mm 0.00 in0.0 mm
12:44 PM 67.8°F19.9°C 45.7°F7.6°C 45% 9.0 mph N14.5 kmh N 17.0 mph27.4 kmh 30.11 in1019.6 mb 0.00 in0.0 mm 0.00 in0.0 mm 0.00 in0.0 mm
12:45 PM 68.2°F20.1°C 46.6°F8.1°C 46% 10.0 mph N16.1 kmh N 17.0 mph27.4 kmh 30.11 in1019.6 mb 0.00 in0.0 mm 0.00 in0.0 mm 0.00 in0.0 mm
12:46 PM 68.4°F20.2°C 46.2°F7.9°C 45% 10.0 mph N16.1 kmh N 16.0 mph25.7 kmh 30.11 in1019.6 mb 0.00 in0.0 mm 0.00 in0.0 mm 0.00 in0.0 mm
12:47 PM 68.4°F20.2°C 45.6°F7.6°C 44% 10.0 mph N16.1 kmh N 16.0 mph25.7 kmh 30.11 in1019.6 mb 0.00 in0.0 mm 0.00 in0.0 mm 0.00 in0.0 mm
12:48 PM 68.5°F20.3°C 45.8°F7.7°C 44% 10.0 mph N16.1 kmh N 19.0 mph30.6 kmh 30.11 in1019.6 mb 0.00 in0.0 mm 0.00 in0.0 mm 0.00 in0.0 mm
12:49 PM 68.5°F20.3°C 45.8°F7.7°C 44% 10.0 mph N16.1 kmh N 19.0 mph30.6 kmh 30.11 in1019.6 mb 0.00 in0.0 mm 0.00 in0.0 mm 0.00 in0.0 mm
12:50 PM 68.7°F20.4°C 46.5°F8.1°C 45% 10.0 mph N16.1 kmh N 19.0 mph30.6 kmh 30.11 in1019.6 mb 0.00 in0.0 mm 0.00 in0.0 mm 0.00 in0.0 mm
12:51 PM 68.7°F20.4°C 45.9°F7.7°C 44% 10.0 mph N16.1 kmh N 19.0 mph30.6 kmh 30.11 in1019.6 mb 0.00 in0.0 mm 0.00 in0.0 mm 0.00 in0.0 mm
12:52 PM 68.5°F20.3°C 45.1°F7.3°C 43% 9.0 mph N14.5 kmh N 19.0 mph30.6 kmh 30.11 in1019.6 mb 0.00 in0.0 mm 0.00 in0.0 mm 0.00 in0.0 mm
12:53 PM 68.4°F20.2°C 45.0°F7.2°C 43% 9.0 mph N14.5 kmh N 19.0 mph30.6 kmh 30.11 in1019.6 mb 0.00 in0.0 mm 0.00 in0.0 mm 0.00 in0.0 mm
12:54 PM 68.4°F20.2°C 45.6°F7.6°C 44% 9.0 mph N14.5 kmh N 19.0 mph30.6 kmh 30.11 in1019.6 mb 0.00 in0.0 mm 0.00 in0.0 mm 0.00 in0.0 mm
12:55 PM 68.4°F20.2°C 45.6°F7.6°C 44% 9.0 mph N14.5 kmh N 19.0 mph30.6 kmh 30.11 in1019.6 mb 0.00 in0.0 mm 0.00 in0.0 mm 0.00 in0.0 mm
12:56 PM 68.5°F20.3°C 45.8°F7.7°C 44% 9.0 mph N14.5 kmh N 19.0 mph30.6 kmh 30.11 in1019.6 mb 0.00 in0.0 mm 0.00 in0.0 mm 0.00 in0.0 mm
12:57 PM 68.5°F20.3°C 45.8°F7.7°C 44% 9.0 mph N14.5 kmh N 19.0 mph30.6 kmh 30.11 in1019.6 mb 0.00 in0.0 mm 0.00 in0.0 mm 0.00 in0.0 mm
12:58 PM 68.5°F20.3°C 46.3°F7.9°C 45% 9.0 mph N14.5 kmh N 17.0 mph27.4 kmh 30.11 in1019.6 mb 0.00 in0.0 mm 0.00 in0.0 mm 0.00 in0.0 mm
12:59 PM 68.7°F20.4°C 46.5°F8.1°C 45% 9.0 mph N14.5 kmh N 17.0 mph27.4 kmh 30.11 in1019.6 mb 0.00 in0.0 mm 0.00 in0.0 mm 0.00 in0.0 mm
01:00 PM 68.7°F20.4°C 45.9°F7.7°C 44% 9.0 mph N14.5 kmh N 17.0 mph27.4 kmh 30.11 in1019.6 mb 0.00 in0.0 mm 0.00 in0.0 mm 0.00 in0.0 mm
01:01 PM 68.5°F20.3°C 45.8°F7.7°C 44% 9.0 mph N14.5 kmh N 17.0 mph27.4 kmh 30.11 in1019.6 mb 0.00 in0.0 mm 0.00 in0.0 mm 0.00 in0.0 mm
01:02 PM 68.5°F20.3°C 45.8°F7.7°C 44% 9.0 mph N14.5 kmh N 15.0 mph24.1 kmh 30.11 in1019.6 mb 0.00 in0.0 mm 0.00 in0.0 mm 0.00 in0.0 mm
01:03 PM 68.4°F20.2°C 45.6°F7.6°C 44% 9.0 mph N14.5 kmh N 16.0 mph25.7 kmh 30.11 in1019.6 mb 0.00 in0.0 mm 0.00 in0.0 mm 0.00 in0.0 mm
01:04 PM 68.4°F20.2°C 45.6°F7.6°C 44% 9.0 mph N14.5 kmh N 16.0 mph25.7 kmh 30.11 in1019.6 mb 0.00 in0.0 mm 0.00 in0.0 mm 0.00 in0.0 mm
01:05 PM 68.4°F20.2°C 45.6°F7.6°C 44% 9.0 mph N14.5 kmh N 16.0 mph25.7 kmh 30.11 in1019.6 mb 0.00 in0.0 mm 0.00 in0.0 mm 0.00 in0.0 mm
01:06 PM 68.2°F20.1°C 45.4°F7.4°C 44% 9.0 mph N14.5 kmh N 16.0 mph25.7 kmh 30.11 in1019.6 mb 0.00 in0.0 mm 0.00 in0.0 mm 0.00 in0.0 mm
01:07 PM 68.2°F20.1°C 46.0°F7.8°C 45% 9.0 mph N14.5 kmh N 16.0 mph25.7 kmh 30.11 in1019.6 mb 0.00 in0.0 mm 0.00 in0.0 mm 0.00 in0.0 mm
01:08 PM 68.4°F20.2°C 46.2°F7.9°C 45% 9.0 mph N14.5 kmh N 16.0 mph25.7 kmh 30.11 in1019.6 mb 0.00 in0.0 mm 0.00 in0.0 mm 0.00 in0.0 mm
01:09 PM 68.4°F20.2°C 46.2°F7.9°C 45% 9.0 mph N14.5 kmh N 16.0 mph25.7 kmh 30.11 in1019.6 mb 0.00 in0.0 mm 0.00 in0.0 mm 0.00 in0.0 mm
01:10 PM 68.5°F20.3°C 46.3°F7.9°C 45% 9.0 mph N14.5 kmh N 17.0 mph27.4 kmh 30.11 in1019.6 mb 0.00 in0.0 mm 0.00 in0.0 mm 0.00 in0.0 mm
01:11 PM 68.7°F20.4°C 46.5°F8.1°C 45% 9.0 mph N14.5 kmh N 17.0 mph27.4 kmh 30.11 in1019.6 mb 0.00 in0.0 mm 0.00 in0.0 mm 0.00 in0.0 mm
01:12 PM 68.7°F20.4°C 45.9°F7.7°C 44% 9.0 mph N14.5 kmh N 17.0 mph27.4 kmh 30.11 in1019.6 mb 0.00 in0.0 mm 0.00 in0.0 mm 0.00 in0.0 mm
01:13 PM 68.7°F20.4°C 45.9°F7.7°C 44% 9.0 mph N14.5 kmh N 17.0 mph27.4 kmh 30.10 in1019.3 mb 0.00 in0.0 mm 0.00 in0.0 mm 0.00 in0.0 mm
01:14 PM 68.9°F20.5°C 46.1°F7.8°C 44% 9.0 mph N14.5 kmh N 17.0 mph27.4 kmh 30.10 in1019.3 mb 0.00 in0.0 mm 0.00 in0.0 mm 0.00 in0.0 mm
01:15 PM 68.9°F20.5°C 46.1°F7.8°C 44% 9.0 mph N14.5 kmh N 17.0 mph27.4 kmh 30.10 in1019.3 mb 0.00 in0.0 mm 0.00 in0.0 mm 0.00 in0.0 mm
01:16 PM 69.1°F20.6°C 46.2°F7.9°C 44% 9.0 mph N14.5 kmh N 19.0 mph30.6 kmh 30.11 in1019.6 mb 0.00 in0.0 mm 0.00 in0.0 mm 0.00 in0.0 mm
01:17 PM 69.1°F20.6°C 46.2°F7.9°C 44% 9.0 mph N14.5 kmh N 19.0 mph30.6 kmh 30.10 in1019.3 mb 0.00 in0.0 mm 0.00 in0.0 mm 0.00 in0.0 mm
01:18 PM 69.1°F20.6°C 46.2°F7.9°C 44% 9.0 mph N14.5 kmh N 19.0 mph30.6 kmh 30.10 in1019.3 mb 0.00 in0.0 mm 0.00 in0.0 mm 0.00 in0.0 mm
01:19 PM 69.1°F20.6°C 46.2°F7.9°C 44% 9.0 mph N14.5 kmh N 19.0 mph30.6 kmh 30.10 in1019.3 mb 0.00 in0.0 mm 0.00 in0.0 mm 0.00 in0.0 mm
01:20 PM 69.1°F20.6°C 46.8°F8.2°C 45% 9.0 mph N14.5 kmh N 19.0 mph30.6 kmh 30.10 in1019.3 mb 0.00 in0.0 mm 0.00 in0.0 mm 0.00 in0.0 mm
01:21 PM 69.1°F20.6°C 46.8°F8.2°C 45% 9.0 mph N14.5 kmh N 19.0 mph30.6 kmh 30.10 in1019.3 mb 0.00 in0.0 mm 0.00 in0.0 mm 0.00 in0.0 mm
01:22 PM 69.3°F20.7°C 46.4°F8.0°C 44% 9.0 mph NNW14.5 kmh NNW 19.0 mph30.6 kmh 30.10 in1019.3 mb 0.00 in0.0 mm 0.00 in0.0 mm 0.00 in0.0 mm
01:23 PM 69.1°F20.6°C 46.2°F7.9°C 44% 9.0 mph NNW14.5 kmh NNW 19.0 mph30.6 kmh 30.10 in1019.3 mb 0.00 in0.0 mm 0.00 in0.0 mm 0.00 in0.0 mm
01:24 PM 69.1°F20.6°C 46.8°F8.2°C 45% 9.0 mph NNW14.5 kmh NNW 19.0 mph30.6 kmh 30.10 in1019.3 mb 0.00 in0.0 mm 0.00 in0.0 mm 0.00 in0.0 mm
01:25 PM 69.1°F20.6°C 46.8°F8.2°C 45% 9.0 mph NNW14.5 kmh NNW 19.0 mph30.6 kmh 30.11 in1019.6 mb 0.00 in0.0 mm 0.00 in0.0 mm 0.00 in0.0 mm
01:26 PM 69.3°F20.7°C 47.0°F8.3°C 45% 10.0 mph NNW16.1 kmh NNW 18.0 mph29.0 kmh 30.10 in1019.3 mb 0.00 in0.0 mm 0.00 in0.0 mm 0.00 in0.0 mm
01:27 PM 69.3°F20.7°C 46.4°F8.0°C 44% 10.0 mph NNW16.1 kmh NNW 20.0 mph32.2 kmh 30.10 in1019.3 mb 0.00 in0.0 mm 0.00 in0.0 mm 0.00 in0.0 mm
01:28 PM 69.3°F20.7°C 47.0°F8.3°C 45% 10.0 mph N16.1 kmh N 20.0 mph32.2 kmh 30.10 in1019.3 mb 0.00 in0.0 mm 0.00 in0.0 mm 0.00 in0.0 mm
01:29 PM 69.3°F20.7°C 46.4°F8.0°C 44% 10.0 mph NNW16.1 kmh NNW 20.0 mph32.2 kmh 30.10 in1019.3 mb 0.00 in0.0 mm 0.00 in0.0 mm 0.00 in0.0 mm
01:30 PM 69.1°F20.6°C 46.2°F7.9°C 44% 10.0 mph NNW16.1 kmh NNW 22.0 mph35.4 kmh 30.10 in1019.3 mb 0.00 in0.0 mm 0.00 in0.0 mm 0.00 in0.0 mm
01:31 PM 69.1°F20.6°C 46.8°F8.2°C 45% 11.0 mph NNW17.7 kmh NNW 22.0 mph35.4 kmh 30.10 in1019.3 mb 0.00 in0.0 mm 0.00 in0.0 mm 0.00 in0.0 mm
01:32 PM 69.3°F20.7°C 47.0°F8.3°C 45% 11.0 mph NNW17.7 kmh NNW 22.0 mph35.4 kmh 30.10 in1019.3 mb 0.00 in0.0 mm 0.00 in0.0 mm 0.00 in0.0 mm
01:33 PM 69.3°F20.7°C 47.0°F8.3°C 45% 11.0 mph NNW17.7 kmh NNW 22.0 mph35.4 kmh 30.10 in1019.3 mb 0.00 in0.0 mm 0.00 in0.0 mm 0.00 in0.0 mm
01:34 PM 69.3°F20.7°C 46.4°F8.0°C 44% 11.0 mph NNW17.7 kmh NNW 22.0 mph35.4 kmh 30.10 in1019.3 mb 0.00 in0.0 mm 0.00 in0.0 mm 0.00 in0.0 mm
01:35 PM 69.3°F20.7°C 47.0°F8.3°C 45% 11.0 mph NNW17.7 kmh NNW 22.0 mph35.4 kmh 30.10 in1019.3 mb 0.00 in0.0 mm 0.00 in0.0 mm 0.00 in0.0 mm
01:36 PM 69.3°F20.7°C 46.4°F8.0°C 44% 11.0 mph NNW17.7 kmh NNW 22.0 mph35.4 kmh 30.10 in1019.3 mb 0.00 in0.0 mm 0.00 in0.0 mm 0.00 in0.0 mm
01:37 PM 69.4°F20.8°C 47.2°F8.4°C 45% 11.0 mph NNW17.7 kmh NNW 22.0 mph35.4 kmh 30.10 in1019.3 mb 0.00 in0.0 mm 0.00 in0.0 mm 0.00 in0.0 mm
01:38 PM 69.4°F20.8°C 47.2°F8.4°C 45% 11.0 mph NNW17.7 kmh NNW 22.0 mph35.4 kmh 30.10 in1019.3 mb 0.00 in0.0 mm 0.00 in0.0 mm 0.00 in0.0 mm
01:39 PM 69.6°F20.9°C 47.3°F8.5°C 45% 11.0 mph NNW17.7 kmh NNW 22.0 mph35.4 kmh 30.10 in1019.3 mb 0.00 in0.0 mm 0.00 in0.0 mm 0.00 in0.0 mm
01:40 PM 69.6°F20.9°C 47.3°F8.5°C 45% 11.0 mph NNW17.7 kmh NNW 19.0 mph30.6 kmh 30.10 in1019.3 mb 0.00 in0.0 mm 0.00 in0.0 mm 0.00 in0.0 mm
01:41 PM 69.8°F21.0°C 47.5°F8.6°C 45% 11.0 mph N17.7 kmh N 19.0 mph30.6 kmh 30.10 in1019.3 mb 0.00 in0.0 mm 0.00 in0.0 mm 0.00 in0.0 mm
01:42 PM 70.0°F21.1°C 47.7°F8.7°C 45% 11.0 mph N17.7 kmh N 19.0 mph30.6 kmh 30.10 in1019.3 mb 0.00 in0.0 mm 0.00 in0.0 mm 0.00 in0.0 mm
01:43 PM 70.0°F21.1°C 47.1°F8.4°C 44% 11.0 mph N17.7 kmh N 19.0 mph30.6 kmh 30.09 in1019.0 mb 0.00 in0.0 mm 0.00 in0.0 mm 0.00 in0.0 mm
01:44 PM 70.0°F21.1°C 47.7°F8.7°C 45% 10.0 mph NNW16.1 kmh NNW 19.0 mph30.6 kmh 30.09 in1019.0 mb 0.00 in0.0 mm 0.00 in0.0 mm 0.00 in0.0 mm
01:45 PM 70.2°F21.2°C 47.2°F8.4°C 44% 10.0 mph NNW16.1 kmh NNW 19.0 mph30.6 kmh 30.09 in1019.0 mb 0.00 in0.0 mm 0.00 in0.0 mm 0.00 in0.0 mm
01:46 PM 70.0°F21.1°C 47.7°F8.7°C 45% 10.0 mph NNW16.1 kmh NNW 22.0 mph35.4 kmh 30.09 in1019.0 mb 0.00 in0.0 mm 0.00 in0.0 mm 0.00 in0.0 mm
01:47 PM 70.0°F21.1°C 47.7°F8.7°C 45% 10.0 mph NNW16.1 kmh NNW 22.0 mph35.4 kmh 30.10 in1019.3 mb 0.00 in0.0 mm 0.00 in0.0 mm 0.00 in0.0 mm
01:48 PM 70.0°F21.1°C 47.1°F8.4°C 44% 10.0 mph NNW16.1 kmh NNW 22.0 mph35.4 kmh 30.09 in1019.0 mb 0.00 in0.0 mm 0.00 in0.0 mm 0.00 in0.0 mm
01:49 PM 70.0°F21.1°C 47.1°F8.4°C 44% 10.0 mph NNW16.1 kmh NNW 22.0 mph35.4 kmh 30.09 in1019.0 mb 0.00 in0.0 mm 0.00 in0.0 mm 0.00 in0.0 mm
01:50 PM 70.0°F21.1°C 47.1°F8.4°C 44% 10.0 mph NNW16.1 kmh NNW 22.0 mph35.4 kmh 30.09 in1019.0 mb 0.00 in0.0 mm 0.00 in0.0 mm 0.00 in0.0 mm
01:51 PM 70.0°F21.1°C 47.7°F8.7°C 45% 10.0 mph NNW16.1 kmh NNW 22.0 mph35.4 kmh 30.09 in1019.0 mb 0.00 in0.0 mm 0.00 in0.0 mm 0.00 in0.0 mm
01:52 PM 70.2°F21.2°C 47.8°F8.8°C 45% 10.0 mph NNW16.1 kmh NNW 22.0 mph35.4 kmh 30.09 in1019.0 mb 0.00 in0.0 mm 0.00 in0.0 mm 0.00 in0.0 mm
01:53 PM 70.2°F21.2°C 47.2°F8.4°C 44% 10.0 mph NNW16.1 kmh NNW 22.0 mph35.4 kmh 30.09 in1019.0 mb 0.00 in0.0 mm 0.00 in0.0 mm 0.00 in0.0 mm
01:54 PM 70.2°F21.2°C 47.2°F8.4°C 44% 10.0 mph N16.1 kmh N 22.0 mph35.4 kmh 30.09 in1019.0 mb 0.00 in0.0 mm 0.00 in0.0 mm 0.00 in0.0 mm
01:55 PM 70.0°F21.1°C 47.1°F8.4°C 44% 10.0 mph N16.1 kmh N 22.0 mph35.4 kmh 30.09 in1019.0 mb 0.00 in0.0 mm 0.00 in0.0 mm 0.00 in0.0 mm
01:56 PM 70.0°F21.1°C 47.7°F8.7°C 45% 10.0 mph N16.1 kmh N 18.0 mph29.0 kmh 30.09 in1019.0 mb 0.00 in0.0 mm 0.00 in0.0 mm 0.00 in0.0 mm
01:57 PM 69.8°F21.0°C 47.5°F8.6°C 45% 10.0 mph N16.1 kmh N 18.0 mph29.0 kmh 30.09 in1019.0 mb 0.00 in0.0 mm 0.00 in0.0 mm 0.00 in0.0 mm
01:58 PM 69.6°F20.9°C 47.3°F8.5°C 45% 10.0 mph N16.1 kmh N 18.0 mph29.0 kmh 30.09 in1019.0 mb 0.00 in0.0 mm 0.00 in0.0 mm 0.00 in0.0 mm
01:59 PM 69.6°F20.9°C 46.7°F8.2°C 44% 10.0 mph N16.1 kmh N 20.0 mph32.2 kmh 30.09 in1019.0 mb 0.00 in0.0 mm 0.00 in0.0 mm 0.00 in0.0 mm
02:00 PM 69.6°F20.9°C 47.3°F8.5°C 45% 10.0 mph N16.1 kmh N 20.0 mph32.2 kmh 30.09 in1019.0 mb 0.00 in0.0 mm 0.00 in0.0 mm 0.00 in0.0 mm
02:01 PM 69.8°F21.0°C 47.5°F8.6°C 45% 10.0 mph N16.1 kmh N 20.0 mph32.2 kmh 30.09 in1019.0 mb 0.00 in0.0 mm 0.00 in0.0 mm 0.00 in0.0 mm
02:02 PM 69.6°F20.9°C 46.7°F8.2°C 44% 10.0 mph N16.1 kmh N 20.0 mph32.2 kmh 30.09 in1019.0 mb 0.00 in0.0 mm 0.00 in0.0 mm 0.00 in0.0 mm
02:03 PM 69.6°F20.9°C 46.7°F8.2°C 44% 10.0 mph N16.1 kmh N 20.0 mph32.2 kmh 30.09 in1019.0 mb 0.00 in0.0 mm 0.00 in0.0 mm 0.00 in0.0 mm
02:04 PM 69.4°F20.8°C 46.6°F8.1°C 44% 10.0 mph NNW16.1 kmh NNW 20.0 mph32.2 kmh 30.09 in1019.0 mb 0.00 in0.0 mm 0.00 in0.0 mm 0.00 in0.0 mm
02:05 PM 69.6°F20.9°C 47.3°F8.5°C 45% 10.0 mph NNW16.1 kmh NNW 20.0 mph32.2 kmh 30.09 in1019.0 mb 0.00 in0.0 mm 0.00 in0.0 mm 0.00 in0.0 mm
02:06 PM 69.6°F20.9°C 46.7°F8.2°C 44% 10.0 mph NNW16.1 kmh NNW 24.0 mph38.6 kmh 30.09 in1019.0 mb 0.00 in0.0 mm 0.00 in0.0 mm 0.00 in0.0 mm
02:07 PM 69.6°F20.9°C 46.7°F8.2°C 44% 10.0 mph NNW16.1 kmh NNW 24.0 mph38.6 kmh 30.09 in1019.0 mb 0.00 in0.0 mm 0.00 in0.0 mm 0.00 in0.0 mm
02:08 PM 69.6°F20.9°C 46.7°F8.2°C 44% 11.0 mph NNW17.7 kmh NNW 24.0 mph38.6 kmh 30.09 in1019.0 mb 0.00 in0.0 mm 0.00 in0.0 mm 0.00 in0.0 mm
02:09 PM 69.6°F20.9°C 46.7°F8.2°C 44% 11.0 mph NNW17.7 kmh NNW 24.0 mph38.6 kmh 30.08 in1018.6 mb 0.00 in0.0 mm 0.00 in0.0 mm 0.00 in0.0 mm
02:10 PM 69.4°F20.8°C 46.6°F8.1°C 44% 11.0 mph NNW17.7 kmh NNW 24.0 mph38.6 kmh 30.09 in1019.0 mb 0.00 in0.0 mm 0.00 in0.0 mm 0.00 in0.0 mm
02:11 PM 69.6°F20.9°C 47.3°F8.5°C 45% 11.0 mph NNW17.7 kmh NNW 24.0 mph38.6 kmh 30.08 in1018.6 mb 0.00 in0.0 mm 0.00 in0.0 mm 0.00 in0.0 mm
02:12 PM 69.6°F20.9°C 47.3°F8.5°C 45% 12.0 mph NNW19.3 kmh NNW 24.0 mph38.6 kmh 30.09 in1019.0 mb 0.00 in0.0 mm 0.00 in0.0 mm 0.00 in0.0 mm
02:13 PM 70.0°F21.1°C 47.7°F8.7°C 45% 12.0 mph NNW19.3 kmh NNW 24.0 mph38.6 kmh 30.08 in1018.6 mb 0.00 in0.0 mm 0.00 in0.0 mm 0.00 in0.0 mm
02:14 PM 70.0°F21.1°C 47.1°F8.4°C 44% 12.0 mph NNW19.3 kmh NNW 24.0 mph38.6 kmh 30.09 in1019.0 mb 0.00 in0.0 mm 0.00 in0.0 mm 0.00 in0.0 mm
02:15 PM 70.0°F21.1°C 47.1°F8.4°C 44% 12.0 mph NNW19.3 kmh NNW 24.0 mph38.6 kmh 30.08 in1018.6 mb 0.00 in0.0 mm 0.00 in0.0 mm 0.00 in0.0 mm
02:16 PM 70.0°F21.1°C 47.1°F8.4°C 44% 12.0 mph NNW19.3 kmh NNW 21.0 mph33.8 kmh 30.08 in1018.6 mb 0.00 in0.0 mm 0.00 in0.0 mm 0.00 in0.0 mm
02:17 PM 70.2°F21.2°C 47.2°F8.4°C 44% 12.0 mph NNW19.3 kmh NNW 20.0 mph32.2 kmh 30.08 in1018.6 mb 0.00 in0.0 mm 0.00 in0.0 mm 0.00 in0.0 mm
02:18 PM 70.2°F21.2°C 47.2°F8.4°C 44% 11.0 mph NNW17.7 kmh NNW 20.0 mph32.2 kmh 30.08 in1018.6 mb 0.00 in0.0 mm 0.00 in0.0 mm 0.00 in0.0 mm
02:19 PM 70.2°F21.2°C 47.2°F8.4°C 44% 11.0 mph NNW17.7 kmh NNW 20.0 mph32.2 kmh 30.08 in1018.6 mb 0.00 in0.0 mm 0.00 in0.0 mm 0.00 in0.0 mm
02:20 PM 70.3°F21.3°C 47.4°F8.6°C 44% 11.0 mph NNW17.7 kmh NNW 20.0 mph32.2 kmh 30.08 in1018.6 mb 0.00 in0.0 mm 0.00 in0.0 mm 0.00 in0.0 mm
02:21 PM 70.3°F21.3°C 47.4°F8.6°C 44% 11.0 mph NNW17.7 kmh NNW 24.0 mph38.6 kmh 30.08 in1018.6 mb 0.00 in0.0 mm 0.00 in0.0 mm 0.00 in0.0 mm
02:22 PM 70.5°F21.4°C 47.5°F8.6°C 44% 11.0 mph NNW17.7 kmh NNW 24.0 mph38.6 kmh 30.08 in1018.6 mb 0.00 in0.0 mm 0.00 in0.0 mm 0.00 in0.0 mm
02:23 PM 70.5°F21.4°C 46.9°F8.3°C 43% 10.0 mph NNW16.1 kmh NNW 24.0 mph38.6 kmh 30.08 in1018.6 mb 0.00 in0.0 mm 0.00 in0.0 mm 0.00 in0.0 mm
02:24 PM 70.5°F21.4°C 46.9°F8.3°C 43% 10.0 mph NNW16.1 kmh NNW 24.0 mph38.6 kmh 30.08 in1018.6 mb 0.00 in0.0 mm 0.00 in0.0 mm 0.00 in0.0 mm
02:25 PM 70.5°F21.4°C 47.5°F8.6°C 44% 10.0 mph NNW16.1 kmh NNW 24.0 mph38.6 kmh 30.08 in1018.6 mb 0.00 in0.0 mm 0.00 in0.0 mm 0.00 in0.0 mm
02:26 PM 70.5°F21.4°C 46.9°F8.3°C 43% 10.0 mph NNW16.1 kmh NNW 24.0 mph38.6 kmh 30.08 in1018.6 mb 0.00 in0.0 mm 0.00 in0.0 mm 0.00 in0.0 mm
02:27 PM 70.5°F21.4°C 46.9°F8.3°C 43% 10.0 mph NNW16.1 kmh NNW 24.0 mph38.6 kmh 30.08 in1018.6 mb 0.00 in0.0 mm 0.00 in0.0 mm 0.00 in0.0 mm
02:28 PM 70.7°F21.5°C 47.1°F8.4°C 43% 10.0 mph NNW16.1 kmh NNW 24.0 mph38.6 kmh 30.08 in1018.6 mb 0.00 in0.0 mm 0.00 in0.0 mm 0.00 in0.0 mm
02:29 PM 70.9°F21.6°C 47.3°F8.5°C 43% 10.0 mph NNW16.1 kmh NNW 24.0 mph38.6 kmh 30.08 in1018.6 mb 0.00 in0.0 mm 0.00 in0.0 mm 0.00 in0.0 mm
02:30 PM 70.9°F21.6°C 47.3°F8.5°C 43% 10.0 mph N16.1 kmh N 24.0 mph38.6 kmh 30.08 in1018.6 mb 0.00 in0.0 mm 0.00 in0.0 mm 0.00 in0.0 mm
02:31 PM 70.9°F21.6°C 47.3°F8.5°C 43% 10.0 mph N16.1 kmh N 17.0 mph27.4 kmh 30.08 in1018.6 mb 0.00 in0.0 mm 0.00 in0.0 mm 0.00 in0.0 mm
02:32 PM 70.9°F21.6°C 47.3°F8.5°C 43% 10.0 mph N16.1 kmh N 17.0 mph27.4 kmh 30.07 in1018.3 mb 0.00 in0.0 mm 0.00 in0.0 mm 0.00 in0.0 mm
02:33 PM 71.1°F21.7°C 47.4°F8.6°C 43% 10.0 mph N16.1 kmh N 17.0 mph27.4 kmh 30.08 in1018.6 mb 0.00 in0.0 mm 0.00 in0.0 mm 0.00 in0.0 mm
02:34 PM 71.1°F21.7°C 47.4°F8.6°C 43% 10.0 mph N16.1 kmh N 17.0 mph27.4 kmh 30.08 in1018.6 mb 0.00 in0.0 mm 0.00 in0.0 mm 0.00 in0.0 mm
02:35 PM 71.1°F21.7°C 47.4°F8.6°C 43% 10.0 mph N16.1 kmh N 17.0 mph27.4 kmh 30.08 in1018.6 mb 0.00 in0.0 mm 0.00 in0.0 mm 0.00 in0.0 mm
02:36 PM 71.2°F21.8°C 47.6°F8.7°C 43% 10.0 mph N16.1 kmh N 17.0 mph27.4 kmh 30.08 in1018.6 mb 0.00 in0.0 mm 0.00 in0.0 mm 0.00 in0.0 mm
02:37 PM 71.1°F21.7°C 46.8°F8.2°C 42% 10.0 mph N16.1 kmh N 17.0 mph27.4 kmh 30.08 in1018.6 mb 0.00 in0.0 mm 0.00 in0.0 mm 0.00 in0.0 mm
02:38 PM 71.1°F21.7°C 46.8°F8.2°C 42% 10.0 mph N16.1 kmh N 19.0 mph30.6 kmh 30.08 in1018.6 mb 0.00 in0.0 mm 0.00 in0.0 mm 0.00 in0.0 mm
02:39 PM 71.1°F21.7°C 46.8°F8.2°C 42% 10.0 mph N16.1 kmh N 19.0 mph30.6 kmh 30.08 in1018.6 mb 0.00 in0.0 mm 0.00 in0.0 mm 0.00 in0.0 mm
02:40 PM 71.1°F21.7°C 46.8°F8.2°C 42% 9.0 mph N14.5 kmh N 19.0 mph30.6 kmh 30.08 in1018.6 mb 0.00 in0.0 mm 0.00 in0.0 mm 0.00 in0.0 mm
02:41 PM 70.9°F21.6°C 46.6°F8.1°C 42% 9.0 mph N14.5 kmh N 19.0 mph30.6 kmh 30.08 in1018.6 mb 0.00 in0.0 mm 0.00 in0.0 mm 0.00 in0.0 mm
02:42 PM 70.9°F21.6°C 46.6°F8.1°C 42% 9.0 mph N14.5 kmh N 19.0 mph30.6 kmh 30.08 in1018.6 mb 0.00 in0.0 mm 0.00 in0.0 mm 0.00 in0.0 mm
02:43 PM 70.9°F21.6°C 46.6°F8.1°C 42% 9.0 mph N14.5 kmh N 19.0 mph30.6 kmh 30.08 in1018.6 mb 0.00 in0.0 mm 0.00 in0.0 mm 0.00 in0.0 mm
02:44 PM 70.9°F21.6°C 46.6°F8.1°C 42% 9.0 mph N14.5 kmh N 19.0 mph30.6 kmh 30.07 in1018.3 mb 0.00 in0.0 mm 0.00 in0.0 mm 0.00 in0.0 mm
02:45 PM 70.9°F21.6°C 46.6°F8.1°C 42% 9.0 mph N14.5 kmh N 19.0 mph30.6 kmh 30.08 in1018.6 mb 0.00 in0.0 mm 0.00 in0.0 mm 0.00 in0.0 mm
02:46 PM 71.1°F21.7°C 47.4°F8.6°C 43% 9.0 mph N14.5 kmh N 19.0 mph30.6 kmh 30.08 in1018.6 mb 0.00 in0.0 mm 0.00 in0.0 mm 0.00 in0.0 mm
02:47 PM 71.1°F21.7°C 46.8°F8.2°C 42% 9.0 mph N14.5 kmh N 19.0 mph30.6 kmh 30.08 in1018.6 mb 0.00 in0.0 mm 0.00 in0.0 mm 0.00 in0.0 mm
02:48 PM 70.9°F21.6°C 46.6°F8.1°C 42% 9.0 mph N14.5 kmh N 18.0 mph29.0 kmh 30.07 in1018.3 mb 0.00 in0.0 mm 0.00 in0.0 mm 0.00 in0.0 mm
02:49 PM 70.9°F21.6°C 46.6°F8.1°C 42% 9.0 mph N14.5 kmh N 18.0 mph29.0 kmh 30.07 in1018.3 mb 0.00 in0.0 mm 0.00 in0.0 mm 0.00 in0.0 mm
02:50 PM 70.9°F21.6°C 47.3°F8.5°C 43% 9.0 mph N14.5 kmh N 18.0 mph29.0 kmh 30.07 in1018.3 mb 0.00 in0.0 mm 0.00 in0.0 mm 0.00 in0.0 mm
02:51 PM 70.9°F21.6°C 47.3°F8.5°C 43% 9.0 mph N14.5 kmh N 18.0 mph29.0 kmh 30.07 in1018.3 mb 0.00 in0.0 mm 0.00 in0.0 mm 0.00 in0.0 mm
02:52 PM 70.9°F21.6°C 47.3°F8.5°C 43% 9.0 mph N14.5 kmh N 18.0 mph29.0 kmh 30.07 in1018.3 mb 0.00 in0.0 mm 0.00 in0.0 mm 0.00 in0.0 mm
02:53 PM 70.9°F21.6°C 46.6°F8.1°C 42% 9.0 mph N14.5 kmh N 18.0 mph29.0 kmh 30.07 in1018.3 mb 0.00 in0.0 mm 0.00 in0.0 mm 0.00 in0.0 mm
02:54 PM 70.9°F21.6°C 46.6°F8.1°C 42% 9.0 mph N14.5 kmh N 18.0 mph29.0 kmh 30.07 in1018.3 mb 0.00 in0.0 mm 0.00 in0.0 mm 0.00 in0.0 mm
02:55 PM 70.9°F21.6°C 46.6°F8.1°C 42% 9.0 mph N14.5 kmh N 18.0 mph29.0 kmh 30.07 in1018.3 mb 0.00 in0.0 mm 0.00 in0.0 mm 0.00 in0.0 mm
02:56 PM 70.9°F21.6°C 46.6°F8.1°C 42% 9.0 mph N14.5 kmh N 18.0 mph29.0 kmh 30.07 in1018.3 mb 0.00 in0.0 mm 0.00 in0.0 mm 0.00 in0.0 mm
02:57 PM 70.9°F21.6°C 47.3°F8.5°C 43% 9.0 mph N14.5 kmh N 22.0 mph35.4 kmh 30.07 in1018.3 mb 0.00 in0.0 mm 0.00 in0.0 mm 0.00 in0.0 mm
02:58 PM 70.7°F21.5°C 47.1°F8.4°C 43% 9.0 mph N14.5 kmh N 22.0 mph35.4 kmh 30.07 in1018.3 mb 0.00 in0.0 mm 0.00 in0.0 mm 0.00 in0.0 mm
02:59 PM 70.5°F21.4°C 46.9°F8.3°C 43% 9.0 mph N14.5 kmh N 22.0 mph35.4 kmh 30.07 in1018.3 mb 0.00 in0.0 mm 0.00 in0.0 mm 0.00 in0.0 mm
03:00 PM 70.7°F21.5°C 47.1°F8.4°C 43% 9.0 mph N14.5 kmh N 22.0 mph35.4 kmh 30.07 in1018.3 mb 0.00 in0.0 mm 0.00 in0.0 mm 0.00 in0.0 mm
03:01 PM 70.9°F21.6°C 47.3°F8.5°C 43% 10.0 mph N16.1 kmh N 22.0 mph35.4 kmh 30.07 in1018.3 mb 0.00 in0.0 mm 0.00 in0.0 mm 0.00 in0.0 mm
03:02 PM 70.9°F21.6°C 47.3°F8.5°C 43% 10.0 mph N16.1 kmh N 22.0 mph35.4 kmh 30.07 in1018.3 mb 0.00 in0.0 mm 0.00 in0.0 mm 0.00 in0.0 mm
03:03 PM 71.1°F21.7°C 47.4°F8.6°C 43% 10.0 mph N16.1 kmh N 22.0 mph35.4 kmh 30.07 in1018.3 mb 0.00 in0.0 mm 0.00 in0.0 mm 0.00 in0.0 mm
03:04 PM 71.1°F21.7°C 47.4°F8.6°C 43% 10.0 mph N16.1 kmh N 22.0 mph35.4 kmh 30.07 in1018.3 mb 0.00 in0.0 mm 0.00 in0.0 mm 0.00 in0.0 mm
03:05 PM 71.1°F21.7°C 47.4°F8.6°C 43% 10.0 mph N16.1 kmh N 22.0 mph35.4 kmh 30.07 in1018.3 mb 0.00 in0.0 mm 0.00 in0.0 mm 0.00 in0.0 mm
03:06 PM 71.2°F21.8°C 47.6°F8.7°C 43% 10.0 mph N16.1 kmh N 22.0 mph35.4 kmh 30.07 in1018.3 mb 0.00 in0.0 mm 0.00 in0.0 mm 0.00 in0.0 mm
03:07 PM 71.2°F21.8°C 47.0°F8.3°C 42% 11.0 mph N17.7 kmh N 20.0 mph32.2 kmh 30.07 in1018.3 mb 0.00 in0.0 mm 0.00 in0.0 mm 0.00 in0.0 mm
03:08 PM 71.4°F21.9°C 47.1°F8.4°C 42% 11.0 mph N17.7 kmh N 17.0 mph27.4 kmh 30.07 in1018.3 mb 0.00 in0.0 mm 0.00 in0.0 mm 0.00 in0.0 mm
03:09 PM 71.4°F21.9°C 47.1°F8.4°C 42% 11.0 mph N17.7 kmh N 18.0 mph29.0 kmh 30.07 in1018.3 mb 0.00 in0.0 mm 0.00 in0.0 mm 0.00 in0.0 mm
03:10 PM 71.4°F21.9°C 47.1°F8.4°C 42% 10.0 mph N16.1 kmh N 18.0 mph29.0 kmh 30.07 in1018.3 mb 0.00 in0.0 mm 0.00 in0.0 mm 0.00 in0.0 mm
03:11 PM 71.4°F21.9°C 47.1°F8.4°C 42% 10.0 mph N16.1 kmh N 18.0 mph29.0 kmh 30.07 in1018.3 mb 0.00 in0.0 mm 0.00 in0.0 mm 0.00 in0.0 mm
03:12 PM 71.4°F21.9°C 47.1°F8.4°C 42% 10.0 mph N16.1 kmh N 19.0 mph30.6 kmh 30.07 in1018.3 mb 0.00 in0.0 mm 0.00 in0.0 mm 0.00 in0.0 mm
03:13 PM 71.4°F21.9°C 47.1°F8.4°C 42% 10.0 mph N16.1 kmh N 19.0 mph30.6 kmh 30.07 in1018.3 mb 0.00 in0.0 mm 0.00 in0.0 mm 0.00 in0.0 mm
03:14 PM 71.6°F22.0°C 47.3°F8.5°C 42% 10.0 mph N16.1 kmh N 19.0 mph30.6 kmh 30.07 in1018.3 mb 0.00 in0.0 mm 0.00 in0.0 mm 0.00 in0.0 mm
03:15 PM 71.4°F21.9°C 46.5°F8.1°C 41% 10.0 mph N16.1 kmh N 19.0 mph30.6 kmh 30.07 in1018.3 mb 0.00 in0.0 mm 0.00 in0.0 mm 0.00 in0.0 mm
03:16 PM 71.4°F21.9°C 46.5°F8.1°C 41% 10.0 mph N16.1 kmh N 19.0 mph30.6 kmh 30.07 in1018.3 mb 0.00 in0.0 mm 0.00 in0.0 mm 0.00 in0.0 mm
03:17 PM 71.4°F21.9°C 46.5°F8.1°C 41% 10.0 mph N16.1 kmh N 19.0 mph30.6 kmh 30.07 in1018.3 mb 0.00 in0.0 mm 0.00 in0.0 mm 0.00 in0.0 mm
03:18 PM 71.4°F21.9°C 47.1°F8.4°C 42% 10.0 mph N16.1 kmh N 21.0 mph33.8 kmh 30.07 in1018.3 mb 0.00 in0.0 mm 0.00 in0.0 mm 0.00 in0.0 mm
03:19 PM 71.4°F21.9°C 47.1°F8.4°C 42% 10.0 mph N16.1 kmh N 21.0 mph33.8 kmh 30.07 in1018.3 mb 0.00 in0.0 mm 0.00 in0.0 mm 0.00 in0.0 mm
03:20 PM 71.4°F21.9°C 47.1°F8.4°C 42% 10.0 mph N16.1 kmh N 21.0 mph33.8 kmh 30.07 in1018.3 mb 0.00 in0.0 mm 0.00 in0.0 mm 0.00 in0.0 mm
03:21 PM 71.4°F21.9°C 47.1°F8.4°C 42% 10.0 mph N16.1 kmh N 21.0 mph33.8 kmh 30.07 in1018.3 mb 0.00 in0.0 mm 0.00 in0.0 mm 0.00 in0.0 mm
03:22 PM 71.6°F22.0°C 47.3°F8.5°C 42% 10.0 mph N16.1 kmh N 21.0 mph33.8 kmh 30.07 in1018.3 mb 0.00 in0.0 mm 0.00 in0.0 mm 0.00 in0.0 mm
03:23 PM 71.8°F22.1°C 47.4°F8.6°C 42% 10.0 mph N16.1 kmh N 21.0 mph33.8 kmh 30.06 in1017.9 mb 0.00 in0.0 mm 0.00 in0.0 mm 0.00 in0.0 mm
03:24 PM 72.0°F22.2°C 48.2°F9.0°C 43% 10.0 mph N16.1 kmh N 21.0 mph33.8 kmh 30.07 in1018.3 mb 0.00 in0.0 mm 0.00 in0.0 mm 0.00 in0.0 mm
03:25 PM 72.1°F22.3°C 47.1°F8.4°C 41% 10.0 mph N16.1 kmh N 21.0 mph33.8 kmh 30.07 in1018.3 mb 0.00 in0.0 mm 0.00 in0.0 mm 0.00 in0.0 mm
03:26 PM 72.1°F22.3°C 47.1°F8.4°C 41% 10.0 mph N16.1 kmh N 21.0 mph33.8 kmh 30.06 in1017.9 mb 0.00 in0.0 mm 0.00 in0.0 mm 0.00 in0.0 mm
03:27 PM 72.1°F22.3°C 47.1°F8.4°C 41% 10.0 mph N16.1 kmh N 21.0 mph33.8 kmh 30.07 in1018.3 mb 0.00 in0.0 mm 0.00 in0.0 mm 0.00 in0.0 mm
03:28 PM 72.1°F22.3°C 47.1°F8.4°C 41% 10.0 mph N16.1 kmh N 20.0 mph32.2 kmh 30.07 in1018.3 mb 0.00 in0.0 mm 0.00 in0.0 mm 0.00 in0.0 mm
03:29 PM 72.1°F22.3°C 47.1°F8.4°C 41% 10.0 mph N16.1 kmh N 20.0 mph32.2 kmh 30.06 in1017.9 mb 0.00 in0.0 mm 0.00 in0.0 mm 0.00 in0.0 mm
03:30 PM 72.1°F22.3°C 47.1°F8.4°C 41% 10.0 mph N16.1 kmh N 20.0 mph32.2 kmh 30.07 in1018.3 mb 0.00 in0.0 mm 0.00 in0.0 mm 0.00 in0.0 mm
03:31 PM 72.0°F22.2°C 47.0°F8.3°C 41% 10.0 mph N16.1 kmh N 20.0 mph32.2 kmh 30.07 in1018.3 mb 0.00 in0.0 mm 0.00 in0.0 mm 0.00 in0.0 mm
03:32 PM 72.0°F22.2°C 47.0°F8.3°C 41% 10.0 mph N16.1 kmh N 20.0 mph32.2 kmh 30.06 in1017.9 mb 0.00 in0.0 mm 0.00 in0.0 mm 0.00 in0.0 mm
03:33 PM 72.1°F22.3°C 47.1°F8.4°C 41% 10.0 mph N16.1 kmh N 20.0 mph32.2 kmh 30.06 in1017.9 mb 0.00 in0.0 mm 0.00 in0.0 mm 0.00 in0.0 mm
03:34 PM 72.1°F22.3°C 47.1°F8.4°C 41% 10.0 mph N16.1 kmh N 20.0 mph32.2 kmh 30.06 in1017.9 mb 0.00 in0.0 mm 0.00 in0.0 mm 0.00 in0.0 mm
03:35 PM 72.3°F22.4°C 47.3°F8.5°C 41% 10.0 mph N16.1 kmh N 20.0 mph32.2 kmh 30.06 in1017.9 mb 0.00 in0.0 mm 0.00 in0.0 mm 0.00 in0.0 mm
03:36 PM 72.3°F22.4°C 47.3°F8.5°C 41% 10.0 mph N16.1 kmh N 18.0 mph29.0 kmh 30.06 in1017.9 mb 0.00 in0.0 mm 0.00 in0.0 mm 0.00 in0.0 mm
03:37 PM 72.3°F22.4°C 47.3°F8.5°C 41% 10.0 mph N16.1 kmh N 18.0 mph29.0 kmh 30.06 in1017.9 mb 0.00 in0.0 mm 0.00 in0.0 mm 0.00 in0.0 mm
03:38 PM 72.3°F22.4°C 47.3°F8.5°C 41% 10.0 mph N16.1 kmh N 23.0 mph37.0 kmh 30.06 in1017.9 mb 0.00 in0.0 mm 0.00 in0.0 mm 0.00 in0.0 mm
03:39 PM 72.1°F22.3°C 47.1°F8.4°C 41% 9.0 mph N14.5 kmh N 23.0 mph37.0 kmh 30.06 in1017.9 mb 0.00 in0.0 mm 0.00 in0.0 mm 0.00 in0.0 mm
03:40 PM 72.1°F22.3°C 47.1°F8.4°C 41% 9.0 mph N14.5 kmh N 23.0 mph37.0 kmh 30.06 in1017.9 mb 0.00 in0.0 mm 0.00 in0.0 mm 0.00 in0.0 mm
03:41 PM 72.1°F22.3°C 47.8°F8.8°C 42% 9.0 mph N14.5 kmh N 23.0 mph37.0 kmh 30.06 in1017.9 mb 0.00 in0.0 mm 0.00 in0.0 mm 0.00 in0.0 mm
03:42 PM 72.3°F22.4°C 47.3°F8.5°C 41% 9.0 mph N14.5 kmh N 23.0 mph37.0 kmh 30.06 in1017.9 mb 0.00 in0.0 mm 0.00 in0.0 mm 0.00 in0.0 mm
03:43 PM 72.3°F22.4°C 47.3°F8.5°C 41% 9.0 mph N14.5 kmh N 23.0 mph37.0 kmh 30.06 in1017.9 mb 0.00 in0.0 mm 0.00 in0.0 mm 0.00 in0.0 mm
03:44 PM 72.1°F22.3°C 46.5°F8.1°C 40% 9.0 mph N14.5 kmh N 23.0 mph37.0 kmh 30.06 in1017.9 mb 0.00 in0.0 mm 0.00 in0.0 mm 0.00 in0.0 mm
03:45 PM 72.1°F22.3°C 47.1°F8.4°C 41% 9.0 mph N14.5 kmh N 23.0 mph37.0 kmh 30.06 in1017.9 mb 0.00 in0.0 mm 0.00 in0.0 mm 0.00 in0.0 mm
03:46 PM 72.0°F22.2°C 46.3°F7.9°C 40% 9.0 mph N14.5 kmh N 23.0 mph37.0 kmh 30.06 in1017.9 mb 0.00 in0.0 mm 0.00 in0.0 mm 0.00 in0.0 mm
03:47 PM 72.0°F22.2°C 46.3°F7.9°C 40% 9.0 mph N14.5 kmh N 23.0 mph37.0 kmh 30.06 in1017.9 mb 0.00 in0.0 mm 0.00 in0.0 mm 0.00 in0.0 mm
03:48 PM 72.0°F22.2°C 47.0°F8.3°C 41% 10.0 mph N16.1 kmh N 22.0 mph35.4 kmh 30.06 in1017.9 mb 0.00 in0.0 mm 0.00 in0.0 mm 0.00 in0.0 mm
03:49 PM 72.0°F22.2°C 47.0°F8.3°C 41% 10.0 mph N16.1 kmh N 18.0 mph29.0 kmh 30.06 in1017.9 mb 0.00 in0.0 mm 0.00 in0.0 mm 0.00 in0.0 mm
03:50 PM 72.1°F22.3°C 47.1°F8.4°C 41% 10.0 mph N16.1 kmh N 18.0 mph29.0 kmh 30.06 in1017.9 mb 0.00 in0.0 mm 0.00 in0.0 mm 0.00 in0.0 mm
03:51 PM 72.1°F22.3°C 47.1°F8.4°C 41% 10.0 mph N16.1 kmh N 17.0 mph27.4 kmh 30.06 in1017.9 mb 0.00 in0.0 mm 0.00 in0.0 mm 0.00 in0.0 mm
03:52 PM 72.3°F22.4°C 47.3°F8.5°C 41% 10.0 mph N16.1 kmh N 17.0 mph27.4 kmh 30.06 in1017.9 mb 0.00 in0.0 mm 0.00 in0.0 mm 0.00 in0.0 mm
03:53 PM 72.3°F22.4°C 46.6°F8.1°C 40% 10.0 mph N16.1 kmh N 20.0 mph32.2 kmh 30.06 in1017.9 mb 0.00 in0.0 mm 0.00 in0.0 mm 0.00 in0.0 mm
03:54 PM 72.3°F22.4°C 46.6°F8.1°C 40% 10.0 mph N16.1 kmh N 20.0 mph32.2 kmh 30.06 in1017.9 mb 0.00 in0.0 mm 0.00 in0.0 mm 0.00 in0.0 mm
03:55 PM 72.1°F22.3°C 47.1°F8.4°C 41% 10.0 mph N16.1 kmh N 20.0 mph32.2 kmh 30.06 in1017.9 mb 0.00 in0.0 mm 0.00 in0.0 mm 0.00 in0.0 mm
03:56 PM 72.1°F22.3°C 47.1°F8.4°C 41% 10.0 mph N16.1 kmh N 20.0 mph32.2 kmh 30.06 in1017.9 mb 0.00 in0.0 mm 0.00 in0.0 mm 0.00 in0.0 mm
03:57 PM 72.1°F22.3°C 47.1°F8.4°C 41% 10.0 mph N16.1 kmh N 20.0 mph32.2 kmh 30.06 in1017.9 mb 0.00 in0.0 mm 0.00 in0.0 mm 0.00 in0.0 mm
03:58 PM 72.1°F22.3°C 47.1°F8.4°C 41% 10.0 mph N16.1 kmh N 20.0 mph32.2 kmh 30.06 in1017.9 mb 0.00 in0.0 mm 0.00 in0.0 mm 0.00 in0.0 mm
03:59 PM 72.1°F22.3°C 47.1°F8.4°C 41% 10.0 mph N16.1 kmh N 20.0 mph32.2 kmh 30.06 in1017.9 mb 0.00 in0.0 mm 0.00 in0.0 mm 0.00 in0.0 mm
04:00 PM 72.3°F22.4°C 47.3°F8.5°C 41% 10.0 mph N16.1 kmh N 20.0 mph32.2 kmh 30.06 in1017.9 mb 0.00 in0.0 mm 0.00 in0.0 mm 0.00 in0.0 mm
04:01 PM 72.3°F22.4°C 47.3°F8.5°C 41% 10.0 mph N16.1 kmh N 20.0 mph32.2 kmh 30.06 in1017.9 mb 0.00 in0.0 mm 0.00 in0.0 mm 0.00 in0.0 mm
04:02 PM 72.3°F22.4°C 47.3°F8.5°C 41% 10.0 mph N16.1 kmh N 20.0 mph32.2 kmh 30.06 in1017.9 mb 0.00 in0.0 mm 0.00 in0.0 mm 0.00 in0.0 mm
04:03 PM 72.1°F22.3°C 47.1°F8.4°C 41% 10.0 mph N16.1 kmh N 16.0 mph25.7 kmh 30.06 in1017.9 mb 0.00 in0.0 mm 0.00 in0.0 mm 0.00 in0.0 mm
04:04 PM 72.0°F22.2°C 47.0°F8.3°C 41% 10.0 mph N16.1 kmh N 16.0 mph25.7 kmh 30.06 in1017.9 mb 0.00 in0.0 mm 0.00 in0.0 mm 0.00 in0.0 mm
04:05 PM 72.0°F22.2°C 47.0°F8.3°C 41% 10.0 mph N16.1 kmh N 16.0 mph25.7 kmh 30.06 in1017.9 mb 0.00 in0.0 mm 0.00 in0.0 mm 0.00 in0.0 mm
04:06 PM 71.8°F22.1°C 47.4°F8.6°C 42% 10.0 mph N16.1 kmh N 16.0 mph25.7 kmh 30.06 in1017.9 mb 0.00 in0.0 mm 0.00 in0.0 mm 0.00 in0.0 mm
04:07 PM 71.8°F22.1°C 47.4°F8.6°C 42% 10.0 mph N16.1 kmh N 16.0 mph25.7 kmh 30.06 in1017.9 mb 0.00 in0.0 mm 0.00 in0.0 mm 0.00 in0.0 mm
04:08 PM 72.0°F22.2°C 47.6°F8.7°C 42% 9.0 mph N14.5 kmh N 16.0 mph25.7 kmh 30.06 in1017.9 mb 0.00 in0.0 mm 0.00 in0.0 mm 0.00 in0.0 mm
04:09 PM 72.0°F22.2°C 47.6°F8.7°C 42% 9.0 mph N14.5 kmh N 16.0 mph25.7 kmh 30.06 in1017.9 mb 0.00 in0.0 mm 0.00 in0.0 mm 0.00 in0.0 mm
04:10 PM 72.0°F22.2°C 47.0°F8.3°C 41% 9.0 mph N14.5 kmh N 16.0 mph25.7 kmh 30.06 in1017.9 mb 0.00 in0.0 mm 0.00 in0.0 mm 0.00 in0.0 mm
04:11 PM 72.0°F22.2°C 47.0°F8.3°C 41% 9.0 mph N14.5 kmh N 17.0 mph27.4 kmh 30.06 in1017.9 mb 0.00 in0.0 mm 0.00 in0.0 mm 0.00 in0.0 mm
04:12 PM 72.0°F22.2°C 46.3°F7.9°C 40% 9.0 mph N14.5 kmh N 17.0 mph27.4 kmh 30.06 in1017.9 mb 0.00 in0.0 mm 0.00 in0.0 mm 0.00 in0.0 mm
04:13 PM 72.0°F22.2°C 47.0°F8.3°C 41% 9.0 mph N14.5 kmh N 17.0 mph27.4 kmh 30.06 in1017.9 mb 0.00 in0.0 mm 0.00 in0.0 mm 0.00 in0.0 mm
04:14 PM 72.0°F22.2°C 46.3°F7.9°C 40% 9.0 mph N14.5 kmh N 18.0 mph29.0 kmh 30.06 in1017.9 mb 0.00 in0.0 mm 0.00 in0.0 mm 0.00 in0.0 mm
04:15 PM 72.0°F22.2°C 46.3°F7.9°C 40% 9.0 mph N14.5 kmh N 18.0 mph29.0 kmh 30.06 in1017.9 mb 0.00 in0.0 mm 0.00 in0.0 mm 0.00 in0.0 mm
04:16 PM 72.0°F22.2°C 46.3°F7.9°C 40% 9.0 mph N14.5 kmh N 18.0 mph29.0 kmh 30.06 in1017.9 mb 0.00 in0.0 mm 0.00 in0.0 mm 0.00 in0.0 mm
04:17 PM 72.1°F22.3°C 46.5°F8.1°C 40% 9.0 mph N14.5 kmh N 18.0 mph29.0 kmh 30.06 in1017.9 mb 0.00 in0.0 mm 0.00 in0.0 mm 0.00 in0.0 mm
04:18 PM 72.1°F22.3°C 46.5°F8.1°C 40% 9.0 mph N14.5 kmh N 18.0 mph29.0 kmh 30.06 in1017.9 mb 0.00 in0.0 mm 0.00 in0.0 mm 0.00 in0.0 mm
04:19 PM 72.1°F22.3°C 46.5°F8.1°C 40% 9.0 mph N14.5 kmh N 18.0 mph29.0 kmh 30.06 in1017.9 mb 0.00 in0.0 mm 0.00 in0.0 mm 0.00 in0.0 mm
04:20 PM 72.1°F22.3°C 46.5°F8.1°C 40% 9.0 mph N14.5 kmh N 18.0 mph29.0 kmh 30.06 in1017.9 mb 0.00 in0.0 mm 0.00 in0.0 mm 0.00 in0.0 mm
04:21 PM 72.3°F22.4°C 46.6°F8.1°C 40% 9.0 mph N14.5 kmh N 18.0 mph29.0 kmh 30.06 in1017.9 mb 0.00 in0.0 mm 0.00 in0.0 mm 0.00 in0.0 mm
04:22 PM 72.3°F22.4°C 46.6°F8.1°C 40% 9.0 mph N14.5 kmh N 18.0 mph29.0 kmh 30.06 in1017.9 mb 0.00 in0.0 mm 0.00 in0.0 mm 0.00 in0.0 mm
04:23 PM 72.3°F22.4°C 46.6°F8.1°C 40% 9.0 mph N14.5 kmh N 18.0 mph29.0 kmh 30.06 in1017.9 mb 0.00 in0.0 mm 0.00 in0.0 mm 0.00 in0.0 mm
04:24 PM 72.3°F22.4°C 46.0°F7.8°C 39% 9.0 mph N14.5 kmh N 20.0 mph32.2 kmh 30.06 in1017.9 mb 0.00 in0.0 mm 0.00 in0.0 mm 0.00 in0.0 mm
04:25 PM 72.3°F22.4°C 46.0°F7.8°C 39% 9.0 mph N14.5 kmh N 20.0 mph32.2 kmh 30.06 in1017.9 mb 0.00 in0.0 mm 0.00 in0.0 mm 0.00 in0.0 mm
04:26 PM 72.1°F22.3°C 45.8°F7.7°C 39% 9.0 mph N14.5 kmh N 20.0 mph32.2 kmh 30.06 in1017.9 mb 0.00 in0.0 mm 0.00 in0.0 mm 0.00 in0.0 mm
04:27 PM 72.1°F22.3°C 45.8°F7.7°C 39% 9.0 mph N14.5 kmh N 20.0 mph32.2 kmh 30.06 in1017.9 mb 0.00 in0.0 mm 0.00 in0.0 mm 0.00 in0.0 mm
04:28 PM 72.0°F22.2°C 45.6°F7.6°C 39% 8.0 mph N12.9 kmh N 20.0 mph32.2 kmh 30.06 in1017.9 mb 0.00 in0.0 mm 0.00 in0.0 mm 0.00 in0.0 mm
04:29 PM 72.0°F22.2°C 45.6°F7.6°C 39% 8.0 mph N12.9 kmh N 20.0 mph32.2 kmh 30.06 in1017.9 mb 0.00 in0.0 mm 0.00 in0.0 mm 0.00 in0.0 mm
04:30 PM 72.0°F22.2°C 45.6°F7.6°C 39% 8.0 mph N12.9 kmh N 20.0 mph32.2 kmh 30.06 in1017.9 mb 0.00 in0.0 mm 0.00 in0.0 mm 0.00 in0.0 mm
04:31 PM 72.0°F22.2°C 45.6°F7.6°C 39% 8.0 mph N12.9 kmh N 20.0 mph32.2 kmh 30.06 in1017.9 mb 0.00 in0.0 mm 0.00 in0.0 mm 0.00 in0.0 mm
04:32 PM 72.0°F22.2°C 45.6°F7.6°C 39% 8.0 mph N12.9 kmh N 20.0 mph32.2 kmh 30.06 in1017.9 mb 0.00 in0.0 mm 0.00 in0.0 mm 0.00 in0.0 mm
04:33 PM 72.0°F22.2°C 45.6°F7.6°C 39% 8.0 mph N12.9 kmh N 20.0 mph32.2 kmh 30.06 in1017.9 mb 0.00 in0.0 mm 0.00 in0.0 mm 0.00 in0.0 mm
04:34 PM 72.0°F22.2°C 45.6°F7.6°C 39% 8.0 mph N12.9 kmh N 20.0 mph32.2 kmh 30.06 in1017.9 mb 0.00 in0.0 mm 0.00 in0.0 mm 0.00 in0.0 mm
04:35 PM 72.1°F22.3°C 45.8°F7.7°C 39% 9.0 mph N14.5 kmh N 20.0 mph32.2 kmh 30.06 in1017.9 mb 0.00 in0.0 mm 0.00 in0.0 mm 0.00 in0.0 mm
04:36 PM 72.1°F22.3°C 46.5°F8.1°C 40% 9.0 mph N14.5 kmh N 20.0 mph32.2 kmh 30.05 in1017.6 mb 0.00 in0.0 mm 0.00 in0.0 mm 0.00 in0.0 mm
04:37 PM 72.3°F22.4°C 46.6°F8.1°C 40% 9.0 mph N14.5 kmh N 20.0 mph32.2 kmh 30.06 in1017.9 mb 0.00 in0.0 mm 0.00 in0.0 mm 0.00 in0.0 mm
04:38 PM 72.5°F22.5°C 46.8°F8.2°C 40% 9.0 mph N14.5 kmh N 20.0 mph32.2 kmh 30.06 in1017.9 mb 0.00 in0.0 mm 0.00 in0.0 mm 0.00 in0.0 mm
04:39 PM 72.7°F22.6°C 47.0°F8.3°C 40% 9.0 mph N14.5 kmh N 20.0 mph32.2 kmh 30.06 in1017.9 mb 0.00 in0.0 mm 0.00 in0.0 mm 0.00 in0.0 mm
04:40 PM 72.5°F22.5°C 46.1°F7.8°C 39% 9.0 mph N14.5 kmh N 18.0 mph29.0 kmh 30.05 in1017.6 mb 0.00 in0.0 mm 0.00 in0.0 mm 0.00 in0.0 mm
04:41 PM 72.5°F22.5°C 46.1°F7.8°C 39% 9.0 mph N14.5 kmh N 18.0 mph29.0 kmh 30.05 in1017.6 mb 0.00 in0.0 mm 0.00 in0.0 mm 0.00 in0.0 mm
04:42 PM 72.5°F22.5°C 46.8°F8.2°C 40% 9.0 mph N14.5 kmh N 18.0 mph29.0 kmh 30.06 in1017.9 mb 0.00 in0.0 mm 0.00 in0.0 mm 0.00 in0.0 mm
04:43 PM 72.5°F22.5°C 46.8°F8.2°C 40% 9.0 mph N14.5 kmh N 18.0 mph29.0 kmh 30.06 in1017.9 mb 0.00 in0.0 mm 0.00 in0.0 mm 0.00 in0.0 mm
04:44 PM 72.7°F22.6°C 47.0°F8.3°C 40% 9.0 mph N14.5 kmh N 18.0 mph29.0 kmh 30.06 in1017.9 mb 0.00 in0.0 mm 0.00 in0.0 mm 0.00 in0.0 mm
04:45 PM 72.7°F22.6°C 46.3°F7.9°C 39% 9.0 mph N14.5 kmh N 18.0 mph29.0 kmh 30.06 in1017.9 mb 0.00 in0.0 mm 0.00 in0.0 mm 0.00 in0.0 mm
04:46 PM 72.7°F22.6°C 46.3°F7.9°C 39% 9.0 mph N14.5 kmh N 18.0 mph29.0 kmh 30.05 in1017.6 mb 0.00 in0.0 mm 0.00 in0.0 mm 0.00 in0.0 mm
04:47 PM 72.7°F22.6°C 46.3°F7.9°C 39% 9.0 mph N14.5 kmh N 18.0 mph29.0 kmh 30.06 in1017.9 mb 0.00 in0.0 mm 0.00 in0.0 mm 0.00 in0.0 mm
04:48 PM 72.7°F22.6°C 46.3°F7.9°C 39% 9.0 mph N14.5 kmh N 16.0 mph25.7 kmh 30.05 in1017.6 mb 0.00 in0.0 mm 0.00 in0.0 mm 0.00 in0.0 mm
04:49 PM 72.7°F22.6°C 46.3°F7.9°C 39% 9.0 mph N14.5 kmh N 16.0 mph25.7 kmh 30.05 in1017.6 mb 0.00 in0.0 mm 0.00 in0.0 mm 0.00 in0.0 mm
04:50 PM 72.7°F22.6°C 46.3°F7.9°C 39% 9.0 mph N14.5 kmh N 16.0 mph25.7 kmh 30.06 in1017.9 mb 0.00 in0.0 mm 0.00 in0.0 mm 0.00 in0.0 mm
04:51 PM 72.7°F22.6°C 45.6°F7.6°C 38% 9.0 mph N14.5 kmh N 16.0 mph25.7 kmh 30.06 in1017.9 mb 0.00 in0.0 mm 0.00 in0.0 mm 0.00 in0.0 mm
04:52 PM 72.7°F22.6°C 45.6°F7.6°C 38% 9.0 mph N14.5 kmh N 18.0 mph29.0 kmh 30.06 in1017.9 mb 0.00 in0.0 mm 0.00 in0.0 mm 0.00 in0.0 mm
04:53 PM 72.7°F22.6°C 45.6°F7.6°C 38% 9.0 mph N14.5 kmh N 18.0 mph29.0 kmh 30.06 in1017.9 mb 0.00 in0.0 mm 0.00 in0.0 mm 0.00 in0.0 mm
04:54 PM 72.5°F22.5°C 45.4°F7.4°C 38% 9.0 mph N14.5 kmh N 18.0 mph29.0 kmh 30.05 in1017.6 mb 0.00 in0.0 mm 0.00 in0.0 mm 0.00 in0.0 mm
04:55 PM 72.5°F22.5°C 46.1°F7.8°C 39% 9.0 mph N14.5 kmh N 18.0 mph29.0 kmh 30.05 in1017.6 mb 0.00 in0.0 mm 0.00 in0.0 mm 0.00 in0.0 mm
04:56 PM 72.3°F22.4°C 46.0°F7.8°C 39% 9.0 mph N14.5 kmh N 18.0 mph29.0 kmh 30.06 in1017.9 mb 0.00 in0.0 mm 0.00 in0.0 mm 0.00 in0.0 mm
04:57 PM 72.3°F22.4°C 45.3°F7.4°C 38% 9.0 mph N14.5 kmh N 21.0 mph33.8 kmh 30.05 in1017.6 mb 0.00 in0.0 mm 0.00 in0.0 mm 0.00 in0.0 mm
04:58 PM 72.3°F22.4°C 46.0°F7.8°C 39% 9.0 mph N14.5 kmh N 21.0 mph33.8 kmh 30.05 in1017.6 mb 0.00 in0.0 mm 0.00 in0.0 mm 0.00 in0.0 mm
04:59 PM 72.3°F22.4°C 46.0°F7.8°C 39% 9.0 mph N14.5 kmh N 21.0 mph33.8 kmh 30.05 in1017.6 mb 0.00 in0.0 mm 0.00 in0.0 mm 0.00 in0.0 mm
05:00 PM 72.3°F22.4°C 46.0°F7.8°C 39% 9.0 mph N14.5 kmh N 21.0 mph33.8 kmh 30.05 in1017.6 mb 0.00 in0.0 mm 0.00 in0.0 mm 0.00 in0.0 mm
05:01 PM 72.3°F22.4°C 46.0°F7.8°C 39% 9.0 mph N14.5 kmh N 21.0 mph33.8 kmh 30.05 in1017.6 mb 0.00 in0.0 mm 0.00 in0.0 mm 0.00 in0.0 mm
05:02 PM 72.3°F22.4°C 46.0°F7.8°C 39% 9.0 mph N14.5 kmh N 21.0 mph33.8 kmh 30.05 in1017.6 mb 0.00 in0.0 mm 0.00 in0.0 mm 0.00 in0.0 mm
05:03 PM 72.3°F22.4°C 46.0°F7.8°C 39% 10.0 mph N16.1 kmh N 21.0 mph33.8 kmh 30.05 in1017.6 mb 0.00 in0.0 mm 0.00 in0.0 mm 0.00 in0.0 mm
05:04 PM 72.3°F22.4°C 46.0°F7.8°C 39% 10.0 mph N16.1 kmh N 21.0 mph33.8 kmh 30.05 in1017.6 mb 0.00 in0.0 mm 0.00 in0.0 mm 0.00 in0.0 mm
05:05 PM 72.3°F22.4°C 46.0°F7.8°C 39% 10.0 mph N16.1 kmh N 21.0 mph33.8 kmh 30.05 in1017.6 mb 0.00 in0.0 mm 0.00 in0.0 mm 0.00 in0.0 mm
05:06 PM 72.1°F22.3°C 45.8°F7.7°C 39% 10.0 mph N16.1 kmh N 24.0 mph38.6 kmh 30.05 in1017.6 mb 0.00 in0.0 mm 0.00 in0.0 mm 0.00 in0.0 mm
05:07 PM 72.1°F22.3°C 45.8°F7.7°C 39% 10.0 mph N16.1 kmh N 24.0 mph38.6 kmh 30.06 in1017.9 mb 0.00 in0.0 mm 0.00 in0.0 mm 0.00 in0.0 mm
05:08 PM 72.0°F22.2°C 45.0°F7.2°C 38% 10.0 mph N16.1 kmh N 24.0 mph38.6 kmh 30.05 in1017.6 mb 0.00 in0.0 mm 0.00 in0.0 mm 0.00 in0.0 mm
05:09 PM 72.0°F22.2°C 45.0°F7.2°C 38% 10.0 mph N16.1 kmh N 24.0 mph38.6 kmh 30.06 in1017.9 mb 0.00 in0.0 mm 0.00 in0.0 mm 0.00 in0.0 mm
05:10 PM 71.8°F22.1°C 45.5°F7.5°C 39% 10.0 mph N16.1 kmh N 24.0 mph38.6 kmh 30.05 in1017.6 mb 0.00 in0.0 mm 0.00 in0.0 mm 0.00 in0.0 mm
05:11 PM 71.8°F22.1°C 45.5°F7.5°C 39% 10.0 mph N16.1 kmh N 24.0 mph38.6 kmh 30.06 in1017.9 mb 0.00 in0.0 mm 0.00 in0.0 mm 0.00 in0.0 mm
05:12 PM 71.8°F22.1°C 44.8°F7.1°C 38% 11.0 mph N17.7 kmh N 24.0 mph38.6 kmh 30.06 in1017.9 mb 0.00 in0.0 mm 0.00 in0.0 mm 0.00 in0.0 mm
05:13 PM 72.0°F22.2°C 45.6°F7.6°C 39% 11.0 mph N17.7 kmh N 24.0 mph38.6 kmh 30.06 in1017.9 mb 0.00 in0.0 mm 0.00 in0.0 mm 0.00 in0.0 mm
05:14 PM 72.0°F22.2°C 45.6°F7.6°C 39% 11.0 mph N17.7 kmh N 24.0 mph38.6 kmh 30.06 in1017.9 mb 0.00 in0.0 mm 0.00 in0.0 mm 0.00 in0.0 mm
05:15 PM 72.0°F22.2°C 45.6°F7.6°C 39% 11.0 mph N17.7 kmh N 24.0 mph38.6 kmh 30.06 in1017.9 mb 0.00 in0.0 mm 0.00 in0.0 mm 0.00 in0.0 mm
05:16 PM 72.1°F22.3°C 45.8°F7.7°C 39% 11.0 mph N17.7 kmh N 20.0 mph32.2 kmh 30.06 in1017.9 mb 0.00 in0.0 mm 0.00 in0.0 mm 0.00 in0.0 mm
05:17 PM 72.1°F22.3°C 45.8°F7.7°C 39% 11.0 mph N17.7 kmh N 20.0 mph32.2 kmh 30.06 in1017.9 mb 0.00 in0.0 mm 0.00 in0.0 mm 0.00 in0.0 mm
05:18 PM 72.1°F22.3°C 45.1°F7.3°C 38% 11.0 mph N17.7 kmh N 20.0 mph32.2 kmh 30.06 in1017.9 mb 0.00 in0.0 mm 0.00 in0.0 mm 0.00 in0.0 mm
05:19 PM 72.1°F22.3°C 45.1°F7.3°C 38% 11.0 mph N17.7 kmh N 17.0 mph27.4 kmh 30.06 in1017.9 mb 0.00 in0.0 mm 0.00 in0.0 mm 0.00 in0.0 mm
05:20 PM 72.1°F22.3°C 45.1°F7.3°C 38% 11.0 mph N17.7 kmh N 17.0 mph27.4 kmh 30.06 in1017.9 mb 0.00 in0.0 mm 0.00 in0.0 mm 0.00 in0.0 mm
05:21 PM 72.1°F22.3°C 45.1°F7.3°C 38% 10.0 mph N16.1 kmh N 17.0 mph27.4 kmh 30.06 in1017.9 mb 0.00 in0.0 mm 0.00 in0.0 mm 0.00 in0.0 mm
05:22 PM 72.1°F22.3°C 45.1°F7.3°C 38% 10.0 mph N16.1 kmh N 15.0 mph24.1 kmh 30.06 in1017.9 mb 0.00 in0.0 mm 0.00 in0.0 mm 0.00 in0.0 mm
05:23 PM 72.1°F22.3°C 45.1°F7.3°C 38% 9.0 mph N14.5 kmh N 15.0 mph24.1 kmh 30.06 in1017.9 mb 0.00 in0.0 mm 0.00 in0.0 mm 0.00 in0.0 mm
05:24 PM 72.1°F22.3°C 45.1°F7.3°C 38% 9.0 mph N14.5 kmh N 15.0 mph24.1 kmh 30.06 in1017.9 mb 0.00 in0.0 mm 0.00 in0.0 mm 0.00 in0.0 mm
05:25 PM 72.1°F22.3°C 45.1°F7.3°C 38% 9.0 mph N14.5 kmh N 15.0 mph24.1 kmh 30.06 in1017.9 mb 0.00 in0.0 mm 0.00 in0.0 mm 0.00 in0.0 mm
05:26 PM 72.1°F22.3°C 45.1°F7.3°C 38% 9.0 mph N14.5 kmh N 15.0 mph24.1 kmh 30.06 in1017.9 mb 0.00 in0.0 mm 0.00 in0.0 mm 0.00 in0.0 mm
05:27 PM 72.1°F22.3°C 45.1°F7.3°C 38% 9.0 mph N14.5 kmh N 17.0 mph27.4 kmh 30.06 in1017.9 mb 0.00 in0.0 mm 0.00 in0.0 mm 0.00 in0.0 mm
05:28 PM 72.1°F22.3°C 45.1°F7.3°C 38% 8.0 mph N12.9 kmh N 17.0 mph27.4 kmh 30.06 in1017.9 mb 0.00 in0.0 mm 0.00 in0.0 mm 0.00 in0.0 mm
05:29 PM 72.0°F22.2°C 44.3°F6.8°C 37% 8.0 mph N12.9 kmh N 18.0 mph29.0 kmh 30.06 in1017.9 mb 0.00 in0.0 mm 0.00 in0.0 mm 0.00 in0.0 mm
05:30 PM 72.0°F22.2°C 44.3°F6.8°C 37% 8.0 mph N12.9 kmh N 18.0 mph29.0 kmh 30.06 in1017.9 mb 0.00 in0.0 mm 0.00 in0.0 mm 0.00 in0.0 mm
05:31 PM 71.8°F22.1°C 44.1°F6.7°C 37% 9.0 mph N14.5 kmh N 18.0 mph29.0 kmh 30.06 in1017.9 mb 0.00 in0.0 mm 0.00 in0.0 mm 0.00 in0.0 mm
05:32 PM 71.8°F22.1°C 44.1°F6.7°C 37% 9.0 mph N14.5 kmh N 18.0 mph29.0 kmh 30.06 in1017.9 mb 0.00 in0.0 mm 0.00 in0.0 mm 0.00 in0.0 mm
05:33 PM 72.0°F22.2°C 44.3°F6.8°C 37% 9.0 mph N14.5 kmh N 18.0 mph29.0 kmh 30.06 in1017.9 mb 0.00 in0.0 mm 0.00 in0.0 mm 0.00 in0.0 mm
05:34 PM 72.0°F22.2°C 43.5°F6.4°C 36% 9.0 mph N14.5 kmh N 18.0 mph29.0 kmh 30.06 in1017.9 mb 0.00 in0.0 mm 0.00 in0.0 mm 0.00 in0.0 mm
05:35 PM 72.0°F22.2°C 44.3°F6.8°C 37% 9.0 mph N14.5 kmh N 18.0 mph29.0 kmh 30.06 in1017.9 mb 0.00 in0.0 mm 0.00 in0.0 mm 0.00 in0.0 mm
05:36 PM 71.8°F22.1°C 44.1°F6.7°C 37% 9.0 mph N14.5 kmh N 18.0 mph29.0 kmh 30.06 in1017.9 mb 0.00 in0.0 mm 0.00 in0.0 mm 0.00 in0.0 mm
05:37 PM 71.8°F22.1°C 44.1°F6.7°C 37% 10.0 mph N16.1 kmh N 18.0 mph29.0 kmh 30.06 in1017.9 mb 0.00 in0.0 mm 0.00 in0.0 mm 0.00 in0.0 mm
05:38 PM 71.8°F22.1°C 44.1°F6.7°C 37% 10.0 mph N16.1 kmh N 18.0 mph29.0 kmh 30.06 in1017.9 mb 0.00 in0.0 mm 0.00 in0.0 mm 0.00 in0.0 mm
05:39 PM 71.8°F22.1°C 44.1°F6.7°C 37% 10.0 mph N16.1 kmh N 18.0 mph29.0 kmh 30.06 in1017.9 mb 0.00 in0.0 mm 0.00 in0.0 mm 0.00 in0.0 mm
05:40 PM 71.8°F22.1°C 44.8°F7.1°C 38% 10.0 mph N16.1 kmh N 18.0 mph29.0 kmh 30.06 in1017.9 mb 0.00 in0.0 mm 0.00 in0.0 mm 0.00 in0.0 mm
05:41 PM 71.8°F22.1°C 44.1°F6.7°C 37% 10.0 mph N16.1 kmh N 18.0 mph29.0 kmh 30.06 in1017.9 mb 0.00 in0.0 mm 0.00 in0.0 mm 0.00 in0.0 mm
09:47 PM 61.5°F16.4°C 45.2°F7.3°C 55% 3.0 mph NNW4.8 kmh NNW 5.0 mph8.0 kmh 30.13 in1020.3 mb 0.00 in0.0 mm 0.00 in0.0 mm 0.00 in0.0 mm
09:48 PM 61.5°F16.4°C 45.7°F7.6°C 56% 3.0 mph NNW4.8 kmh NNW 4.0 mph6.4 kmh 30.13 in1020.3 mb 0.00 in0.0 mm 0.00 in0.0 mm 0.00 in0.0 mm
09:49 PM 61.5°F16.4°C 45.7°F7.6°C 56% 3.0 mph NNW4.8 kmh NNW 3.0 mph4.8 kmh 30.13 in1020.3 mb 0.00 in0.0 mm 0.00 in0.0 mm 0.00 in0.0 mm
09:50 PM 61.5°F16.4°C 45.7°F7.6°C 56% 3.0 mph NNW4.8 kmh NNW 3.0 mph4.8 kmh 30.13 in1020.3 mb 0.00 in0.0 mm 0.00 in0.0 mm 0.00 in0.0 mm
09:51 PM 61.5°F16.4°C 45.7°F7.6°C 56% 3.0 mph NNW4.8 kmh NNW 4.0 mph6.4 kmh 30.13 in1020.3 mb 0.00 in0.0 mm 0.00 in0.0 mm 0.00 in0.0 mm
09:52 PM 61.3°F16.3°C 45.5°F7.5°C 56% 3.0 mph NNW4.8 kmh NNW 4.0 mph6.4 kmh 30.13 in1020.3 mb 0.00 in0.0 mm 0.00 in0.0 mm 0.00 in0.0 mm
09:53 PM 61.3°F16.3°C 45.5°F7.5°C 56% 3.0 mph NNW4.8 kmh NNW 5.0 mph8.0 kmh 30.13 in1020.3 mb 0.00 in0.0 mm 0.00 in0.0 mm 0.00 in0.0 mm
09:54 PM 61.3°F16.3°C 45.5°F7.5°C 56% 3.0 mph NNW4.8 kmh NNW 5.0 mph8.0 kmh 30.13 in1020.3 mb 0.00 in0.0 mm 0.00 in0.0 mm 0.00 in0.0 mm
09:55 PM 61.3°F16.3°C 45.5°F7.5°C 56% 3.0 mph NNW4.8 kmh NNW 5.0 mph8.0 kmh 30.13 in1020.3 mb 0.00 in0.0 mm 0.00 in0.0 mm 0.00 in0.0 mm
09:56 PM 61.3°F16.3°C 45.5°F7.5°C 56% 3.0 mph NNW4.8 kmh NNW 5.0 mph8.0 kmh 30.13 in1020.3 mb 0.00 in0.0 mm 0.00 in0.0 mm 0.00 in0.0 mm
09:57 PM 61.3°F16.3°C 45.5°F7.5°C 56% 2.0 mph NNW3.2 kmh NNW 5.0 mph8.0 kmh 30.13 in1020.3 mb 0.00 in0.0 mm 0.00 in0.0 mm 0.00 in0.0 mm
09:58 PM 61.3°F16.3°C 45.5°F7.5°C 56% 2.0 mph NNW3.2 kmh NNW 5.0 mph8.0 kmh 30.13 in1020.3 mb 0.00 in0.0 mm 0.00 in0.0 mm 0.00 in0.0 mm
09:59 PM 61.3°F16.3°C 45.5°F7.5°C 56% 2.0 mph NNW3.2 kmh NNW 5.0 mph8.0 kmh 30.13 in1020.3 mb 0.00 in0.0 mm 0.00 in0.0 mm 0.00 in0.0 mm
10:00 PM 61.3°F16.3°C 45.5°F7.5°C 56% 2.0 mph NNW3.2 kmh NNW 5.0 mph8.0 kmh 30.13 in1020.3 mb 0.00 in0.0 mm 0.00 in0.0 mm 0.00 in0.0 mm
10:01 PM 61.2°F16.2°C 45.3°F7.4°C 56% 2.0 mph NNW3.2 kmh NNW 5.0 mph8.0 kmh 30.13 in1020.3 mb 0.00 in0.0 mm 0.00 in0.0 mm 0.00 in0.0 mm
10:02 PM 61.2°F16.2°C 45.3°F7.4°C 56% 2.0 mph NNW3.2 kmh NNW 5.0 mph8.0 kmh 30.13 in1020.3 mb 0.00 in0.0 mm 0.00 in0.0 mm 0.00 in0.0 mm
10:03 PM 61.2°F16.2°C 45.3°F7.4°C 56% 2.0 mph NNW3.2 kmh NNW 4.0 mph6.4 kmh 30.14 in1020.7 mb 0.00 in0.0 mm 0.00 in0.0 mm 0.00 in0.0 mm
10:04 PM 61.2°F16.2°C 45.3°F7.4°C 56% 2.0 mph NNW3.2 kmh NNW 4.0 mph6.4 kmh 30.14 in1020.7 mb 0.00 in0.0 mm 0.00 in0.0 mm 0.00 in0.0 mm
10:05 PM 61.2°F16.2°C 45.3°F7.4°C 56% 2.0 mph NNW3.2 kmh NNW 4.0 mph6.4 kmh 30.14 in1020.7 mb 0.00 in0.0 mm 0.00 in0.0 mm 0.00 in0.0 mm
10:06 PM 61.3°F16.3°C 45.5°F7.5°C 56% 2.0 mph NNW3.2 kmh NNW 4.0 mph6.4 kmh 30.14 in1020.7 mb 0.00 in0.0 mm 0.00 in0.0 mm 0.00 in0.0 mm
10:07 PM 61.3°F16.3°C 45.5°F7.5°C 56% 2.0 mph NNW3.2 kmh NNW 4.0 mph6.4 kmh 30.14 in1020.7 mb 0.00 in0.0 mm 0.00 in0.0 mm 0.00 in0.0 mm
10:08 PM 61.3°F16.3°C 45.5°F7.5°C 56% 2.0 mph NNW3.2 kmh NNW 4.0 mph6.4 kmh 30.14 in1020.7 mb 0.00 in0.0 mm 0.00 in0.0 mm 0.00 in0.0 mm
10:09 PM 61.3°F16.3°C 45.5°F7.5°C 56% 2.0 mph NNW3.2 kmh NNW 4.0 mph6.4 kmh 30.14 in1020.7 mb 0.00 in0.0 mm 0.00 in0.0 mm 0.00 in0.0 mm
10:10 PM 61.3°F16.3°C 45.5°F7.5°C 56% 2.0 mph NNW3.2 kmh NNW 4.0 mph6.4 kmh 30.14 in1020.7 mb 0.00 in0.0 mm 0.00 in0.0 mm 0.00 in0.0 mm
10:11 PM 61.3°F16.3°C 45.5°F7.5°C 56% 2.0 mph NNW3.2 kmh NNW 4.0 mph6.4 kmh 30.14 in1020.7 mb 0.00 in0.0 mm 0.00 in0.0 mm 0.00 in0.0 mm
10:12 PM 61.3°F16.3°C 45.5°F7.5°C 56% 2.0 mph NNW3.2 kmh NNW 4.0 mph6.4 kmh 30.14 in1020.7 mb 0.00 in0.0 mm 0.00 in0.0 mm 0.00 in0.0 mm
10:13 PM 61.3°F16.3°C 45.5°F7.5°C 56% 2.0 mph NNW3.2 kmh NNW 4.0 mph6.4 kmh 30.14 in1020.7 mb 0.00 in0.0 mm 0.00 in0.0 mm 0.00 in0.0 mm
10:14 PM 61.5°F16.4°C 45.7°F7.6°C 56% 2.0 mph NNW3.2 kmh NNW 4.0 mph6.4 kmh 30.14 in1020.7 mb 0.00 in0.0 mm 0.00 in0.0 mm 0.00 in0.0 mm
10:15 PM 61.5°F16.4°C 45.2°F7.3°C 55% 2.0 mph NNW3.2 kmh NNW 4.0 mph6.4 kmh 30.14 in1020.7 mb 0.00 in0.0 mm 0.00 in0.0 mm 0.00 in0.0 mm
10:16 PM 61.5°F16.4°C 45.2°F7.3°C 55% 2.0 mph NNW3.2 kmh NNW 4.0 mph6.4 kmh 30.14 in1020.7 mb 0.00 in0.0 mm 0.00 in0.0 mm 0.00 in0.0 mm
10:17 PM 61.5°F16.4°C 45.2°F7.3°C 55% 2.0 mph NNW3.2 kmh NNW 4.0 mph6.4 kmh 30.14 in1020.7 mb 0.00 in0.0 mm 0.00 in0.0 mm 0.00 in0.0 mm
10:18 PM 61.5°F16.4°C 45.2°F7.3°C 55% 2.0 mph NNW3.2 kmh NNW 4.0 mph6.4 kmh 30.14 in1020.7 mb 0.00 in0.0 mm 0.00 in0.0 mm 0.00 in0.0 mm
10:19 PM 61.5°F16.4°C 45.2°F7.3°C 55% 2.0 mph NNW3.2 kmh NNW 4.0 mph6.4 kmh 30.14 in1020.7 mb 0.00 in0.0 mm 0.00 in0.0 mm 0.00 in0.0 mm
10:20 PM 61.5°F16.4°C 45.2°F7.3°C 55% 2.0 mph NNW3.2 kmh NNW 4.0 mph6.4 kmh 30.14 in1020.7 mb 0.00 in0.0 mm 0.00 in0.0 mm 0.00 in0.0 mm
10:21 PM 61.5°F16.4°C 45.2°F7.3°C 55% 2.0 mph NNW3.2 kmh NNW 4.0 mph6.4 kmh 30.14 in1020.7 mb 0.00 in0.0 mm 0.00 in0.0 mm 0.00 in0.0 mm
10:22 PM 61.7°F16.5°C 45.4°F7.4°C 55% 2.0 mph NNW3.2 kmh NNW 4.0 mph6.4 kmh 30.14 in1020.7 mb 0.00 in0.0 mm 0.00 in0.0 mm 0.00 in0.0 mm
10:23 PM 61.7°F16.5°C 45.4°F7.4°C 55% 2.0 mph NNW3.2 kmh NNW 4.0 mph6.4 kmh 30.14 in1020.7 mb 0.00 in0.0 mm 0.00 in0.0 mm 0.00 in0.0 mm
10:24 PM 61.7°F16.5°C 45.4°F7.4°C 55% 2.0 mph NNW3.2 kmh NNW 4.0 mph6.4 kmh 30.14 in1020.7 mb 0.00 in0.0 mm 0.00 in0.0 mm 0.00 in0.0 mm
10:25 PM 61.7°F16.5°C 45.4°F7.4°C 55% 2.0 mph NW3.2 kmh NW 3.0 mph4.8 kmh 30.14 in1020.7 mb 0.00 in0.0 mm 0.00 in0.0 mm 0.00 in0.0 mm
10:26 PM 61.7°F16.5°C 45.4°F7.4°C 55% 2.0 mph NW3.2 kmh NW 3.0 mph4.8 kmh 30.14 in1020.7 mb 0.00 in0.0 mm 0.00 in0.0 mm 0.00 in0.0 mm
10:27 PM 61.7°F16.5°C 45.4°F7.4°C 55% 2.0 mph NW3.2 kmh NW 3.0 mph4.8 kmh 30.14 in1020.7 mb 0.00 in0.0 mm 0.00 in0.0 mm 0.00 in0.0 mm
10:28 PM 61.5°F16.4°C 45.2°F7.3°C 55% 2.0 mph NW3.2 kmh NW 3.0 mph4.8 kmh 30.14 in1020.7 mb 0.00 in0.0 mm 0.00 in0.0 mm 0.00 in0.0 mm
10:29 PM 61.5°F16.4°C 45.2°F7.3°C 55% 2.0 mph NW3.2 kmh NW 3.0 mph4.8 kmh 30.14 in1020.7 mb 0.00 in0.0 mm 0.00 in0.0 mm 0.00 in0.0 mm
10:30 PM 61.3°F16.3°C 45.0°F7.2°C 55% 2.0 mph NW3.2 kmh NW 3.0 mph4.8 kmh 30.14 in1020.7 mb 0.00 in0.0 mm 0.00 in0.0 mm 0.00 in0.0 mm
10:31 PM 61.3°F16.3°C 45.0°F7.2°C 55% 1.0 mph NW1.6 kmh NW 3.0 mph4.8 kmh 30.14 in1020.7 mb 0.00 in0.0 mm 0.00 in0.0 mm 0.00 in0.0 mm
10:32 PM 61.2°F16.2°C 44.9°F7.2°C 55% 1.0 mph NW1.6 kmh NW 3.0 mph4.8 kmh 30.14 in1020.7 mb 0.00 in0.0 mm 0.00 in0.0 mm 0.00 in0.0 mm
10:33 PM 61.2°F16.2°C 44.9°F7.2°C 55% 1.0 mph NW1.6 kmh NW 3.0 mph4.8 kmh 30.13 in1020.3 mb 0.00 in0.0 mm 0.00 in0.0 mm 0.00 in0.0 mm
10:34 PM 61.2°F16.2°C 45.3°F7.4°C 56% 1.0 mph NW1.6 kmh NW 3.0 mph4.8 kmh 30.14 in1020.7 mb 0.00 in0.0 mm 0.00 in0.0 mm 0.00 in0.0 mm
10:35 PM 61.0°F16.1°C 45.2°F7.3°C 56% 1.0 mph NW1.6 kmh NW 3.0 mph4.8 kmh 30.13 in1020.3 mb 0.00 in0.0 mm 0.00 in0.0 mm 0.00 in0.0 mm
10:36 PM 61.0°F16.1°C 45.2°F7.3°C 56% 1.0 mph NW1.6 kmh NW 3.0 mph4.8 kmh 30.13 in1020.3 mb 0.00 in0.0 mm 0.00 in0.0 mm 0.00 in0.0 mm
10:37 PM 60.8°F16.0°C 45.0°F7.2°C 56% 1.0 mph NW1.6 kmh NW 3.0 mph4.8 kmh 30.13 in1020.3 mb 0.00 in0.0 mm 0.00 in0.0 mm 0.00 in0.0 mm
10:38 PM 60.8°F16.0°C 45.0°F7.2°C 56% 1.0 mph NW1.6 kmh NW 3.0 mph4.8 kmh 30.14 in1020.7 mb 0.00 in0.0 mm 0.00 in0.0 mm 0.00 in0.0 mm
10:39 PM 60.8°F16.0°C 45.0°F7.2°C 56% 1.0 mph NW1.6 kmh NW 3.0 mph4.8 kmh 30.14 in1020.7 mb 0.00 in0.0 mm 0.00 in0.0 mm 0.00 in0.0 mm
10:40 PM 60.8°F16.0°C 45.0°F7.2°C 56% 1.0 mph NW1.6 kmh NW 3.0 mph4.8 kmh 30.14 in1020.7 mb 0.00 in0.0 mm 0.00 in0.0 mm 0.00 in0.0 mm
10:41 PM 60.6°F15.9°C 44.8°F7.1°C 56% 1.0 mph NW1.6 kmh NW 3.0 mph4.8 kmh 30.14 in1020.7 mb 0.00 in0.0 mm 0.00 in0.0 mm 0.00 in0.0 mm
10:42 PM 60.6°F15.9°C 44.8°F7.1°C 56% 1.0 mph NW1.6 kmh NW 3.0 mph4.8 kmh 30.13 in1020.3 mb 0.00 in0.0 mm 0.00 in0.0 mm 0.00 in0.0 mm
10:43 PM 60.6°F15.9°C 44.8°F7.1°C 56% 1.0 mph NW1.6 kmh NW 3.0 mph4.8 kmh 30.13 in1020.3 mb 0.00 in0.0 mm 0.00 in0.0 mm 0.00 in0.0 mm
10:44 PM 60.6°F15.9°C 44.8°F7.1°C 56% 1.0 mph NW1.6 kmh NW 3.0 mph4.8 kmh 30.14 in1020.7 mb 0.00 in0.0 mm 0.00 in0.0 mm 0.00 in0.0 mm
10:45 PM 60.6°F15.9°C 44.8°F7.1°C 56% 1.0 mph NW1.6 kmh NW 5.0 mph8.0 kmh 30.14 in1020.7 mb 0.00 in0.0 mm 0.00 in0.0 mm 0.00 in0.0 mm
10:46 PM 60.8°F16.0°C 45.0°F7.2°C 56% 1.0 mph NW1.6 kmh NW 5.0 mph8.0 kmh 30.13 in1020.3 mb 0.00 in0.0 mm 0.00 in0.0 mm 0.00 in0.0 mm
10:47 PM 61.0°F16.1°C 45.2°F7.3°C 56% 1.0 mph NW1.6 kmh NW 5.0 mph8.0 kmh 30.13 in1020.3 mb 0.00 in0.0 mm 0.00 in0.0 mm 0.00 in0.0 mm
10:48 PM 61.0°F16.1°C 45.2°F7.3°C 56% 1.0 mph NW1.6 kmh NW 5.0 mph8.0 kmh 30.13 in1020.3 mb 0.00 in0.0 mm 0.00 in0.0 mm 0.00 in0.0 mm